Time,TemperatureF,DewpointF,PressureIn,WindDirection,WindDirectionDegrees,WindSpeedMPH,WindSpeedGustMPH,Humidity,HourlyPrecipIn,Conditions,Clouds,dailyrainin,SoftwareType,DateUTC
2013-01-26 00:00:00,7.9,2.4,30.02,NE,45,0.0,0.0,78,0.00,,,0.00,WUHU21623XXSP,2013-01-26 05:00:00,
2013-01-26 00:02:00,8.2,2.8,30.03,NE,45,0.0,0.0,78,0.00,,,0.00,WUHU21623XXSP,2013-01-26 05:02:00,
2013-01-26 00:04:00,8.1,2.6,30.03,NE,45,0.0,0.0,78,0.00,,,0.00,WUHU21623XXSP,2013-01-26 05:04:00,
2013-01-26 00:06:00,7.5,2.1,30.03,NE,45,0.0,0.0,78,0.00,,,0.00,WUHU21623XXSP,2013-01-26 05:06:00,
2013-01-26 00:08:00,7.5,2.1,30.02,NE,45,0.0,0.0,78,0.00,,,0.00,WUHU21623XXSP,2013-01-26 05:08:00,
2013-01-26 00:09:00,7.9,2.4,30.02,NE,45,0.0,0.0,78,0.00,,,0.00,WUHU21623XXSP,2013-01-26 05:09:00,
2013-01-26 00:11:00,7.5,2.1,30.03,NE,45,0.0,0.0,78,0.00,,,0.00,WUHU21623XXSP,2013-01-26 05:11:00,
2013-01-26 00:13:00,7.5,2.1,30.02,NE,45,0.0,0.0,78,0.00,,,0.00,WUHU21623XXSP,2013-01-26 05:13:00,
2013-01-26 00:15:00,7.5,2.1,30.02,NE,45,0.0,0.0,78,0.00,,,0.00,WUHU21623XXSP,2013-01-26 05:15:00,
2013-01-26 00:16:00,7.5,2.1,30.03,NE,45,0.0,0.0,78,0.00,,,0.00,WUHU21623XXSP,2013-01-26 05:16:00,
2013-01-26 00:17:00,7.5,2.1,30.02,NE,45,0.0,0.0,78,0.00,,,0.00,WUHU21623XXSP,2013-01-26 05:17:00,
2013-01-26 00:19:00,7.3,1.9,30.02,NE,45,0.0,0.0,78,0.00,,,0.00,WUHU21623XXSP,2013-01-26 05:19:00,
2013-01-26 00:21:00,7.2,1.7,30.02,NE,45,0.0,0.0,78,0.00,,,0.00,WUHU21623XXSP,2013-01-26 05:21:00,
2013-01-26 00:22:00,7.5,2.1,30.02,NE,45,0.0,0.0,78,0.00,,,0.00,WUHU21623XXSP,2013-01-26 05:22:00,
2013-01-26 00:23:00,7.0,1.5,30.02,NE,45,0.0,0.0,78,0.00,,,0.00,WUHU21623XXSP,2013-01-26 05:23:00,
2013-01-26 00:25:00,6.8,1.4,30.02,NE,45,0.0,0.0,78,0.00,,,0.00,WUHU21623XXSP,2013-01-26 05:25:00,
2013-01-26 00:28:00,6.6,1.2,30.02,NE,45,0.0,0.0,78,0.00,,,0.00,WUHU21623XXSP,2013-01-26 05:28:00,
2013-01-26 00:29:00,7.3,1.9,30.02,NE,45,0.0,0.0,78,0.00,,,0.00,WUHU21623XXSP,2013-01-26 05:29:00,
2013-01-26 00:30:00,6.6,1.2,30.02,NE,45,0.0,0.0,78,0.00,,,0.00,WUHU21623XXSP,2013-01-26 05:30:00,
2013-01-26 00:32:00,6.4,0.7,30.02,NE,45,0.0,0.0,77,0.00,,,0.00,WUHU21623XXSP,2013-01-26 05:32:00,
2013-01-26 00:34:00,6.4,0.7,30.02,NE,45,0.0,0.0,77,0.00,,,0.00,WUHU21623XXSP,2013-01-26 05:34:00,
2013-01-26 00:35:00,6.8,1.4,30.02,NE,45,0.0,0.0,78,0.00,,,0.00,WUHU21623XXSP,2013-01-26 05:35:00,
2013-01-26 00:36:00,6.1,0.4,30.02,NE,45,0.0,0.0,77,0.00,,,0.00,WUHU21623XXSP,2013-01-26 05:36:00,
2013-01-26 00:38:00,5.9,0.2,30.02,NE,45,0.0,0.0,77,0.00,,,0.00,WUHU21623XXSP,2013-01-26 05:38:00,
2013-01-26 00:40:00,5.7,0.3,30.03,NE,45,0.0,0.0,78,0.00,,,0.00,WUHU21623XXSP,2013-01-26 05:40:00,
2013-01-26 00:41:00,6.4,0.7,30.02,NE,45,0.0,0.0,77,0.00,,,0.00,WUHU21623XXSP,2013-01-26 05:41:00,
2013-01-26 00:43:00,5.5,0.1,30.02,NE,45,0.0,0.0,78,0.00,,,0.00,WUHU21623XXSP,2013-01-26 05:43:00,
2013-01-26 00:45:00,5.4,-0.4,30.02,NE,45,0.0,0.0,77,0.00,,,0.00,WUHU21623XXSP,2013-01-26 05:45:00,
2013-01-26 00:47:00,5.0,-0.4,30.03,NE,45,0.0,0.0,78,0.00,,,0.00,WUHU21623XXSP,2013-01-26 05:47:00,
2013-01-26 00:48:00,5.9,0.2,30.02,NE,45,0.0,0.0,77,0.00,,,0.00,WUHU21623XXSP,2013-01-26 05:48:00,
2013-01-26 00:49:00,5.0,-0.4,30.03,NE,45,0.0,0.0,78,0.00,,,0.00,WUHU21623XXSP,2013-01-26 05:49:00,
2013-01-26 00:52:00,5.0,-0.4,30.03,NE,45,0.0,0.0,78,0.00,,,0.00,WUHU21623XXSP,2013-01-26 05:52:00,
2013-01-26 00:54:00,5.4,-0.4,30.02,NE,45,0.0,0.0,77,0.00,,,0.00,WUHU21623XXSP,2013-01-26 05:54:00,
2013-01-26 00:55:00,4.8,-0.6,30.02,NE,45,0.0,0.0,78,0.00,,,0.00,WUHU21623XXSP,2013-01-26 05:55:00,
2013-01-26 00:57:00,4.1,-1.6,30.02,NE,45,0.0,0.0,77,0.00,,,0.00,WUHU21623XXSP,2013-01-26 05:57:00,
2013-01-26 01:00:00,3.9,-1.5,30.02,NE,45,0.0,0.0,78,0.00,,,0.00,WUHU21623XXSP,2013-01-26 06:00:00,
2013-01-26 01:02:00,5.0,-0.4,30.03,NE,45,0.0,0.0,78,0.00,,,0.00,WUHU21623XXSP,2013-01-26 06:02:00,
2013-01-26 01:04:00,3.6,-2.1,30.03,NE,45,0.0,0.0,77,0.00,,,0.00,WUHU21623XXSP,2013-01-26 06:04:00,
2013-01-26 01:06:00,3.4,-2.3,30.02,NE,45,0.0,0.0,77,0.00,,,0.00,WUHU21623XXSP,2013-01-26 06:06:00,
2013-01-26 01:07:00,4.1,-1.6,30.02,NE,45,0.0,0.0,77,0.00,,,0.00,WUHU21623XXSP,2013-01-26 06:07:00,
2013-01-26 01:08:00,3.2,-2.5,30.03,NE,45,0.0,0.0,77,0.00,,,0.00,WUHU21623XXSP,2013-01-26 06:08:00,
2013-01-26 01:10:00,2.8,-2.8,30.03,NE,45,0.0,0.0,77,0.00,,,0.00,WUHU21623XXSP,2013-01-26 06:10:00,
2013-01-26 01:13:00,2.8,-2.8,30.03,NE,45,0.0,0.0,77,0.00,,,0.00,WUHU21623XXSP,2013-01-26 06:13:00,
2013-01-26 01:14:00,3.6,-2.1,30.03,NE,45,0.0,0.0,77,0.00,,,0.00,WUHU21623XXSP,2013-01-26 06:14:00,
2013-01-26 01:15:00,2.7,-3.0,30.03,NE,45,0.0,0.0,77,0.00,,,0.00,WUHU21623XXSP,2013-01-26 06:15:00,
2013-01-26 01:17:00,2.5,-2.9,30.03,NE,45,0.0,0.0,78,0.00,,,0.00,WUHU21623XXSP,2013-01-26 06:17:00,
2013-01-26 01:19:00,2.5,-2.9,30.03,NE,45,0.0,0.0,78,0.00,,,0.00,WUHU21623XXSP,2013-01-26 06:19:00,
2013-01-26 01:20:00,2.8,-2.8,30.03,NE,45,0.0,0.0,77,0.00,,,0.00,WUHU21623XXSP,2013-01-26 06:20:00,
2013-01-26 01:21:00,2.5,-2.9,30.03,NE,45,0.0,0.0,78,0.00,,,0.00,WUHU21623XXSP,2013-01-26 06:21:00,
2013-01-26 01:23:00,2.3,-3.1,30.03,NE,45,0.0,0.0,78,0.00,,,0.00,WUHU21623XXSP,2013-01-26 06:23:00,
2013-01-26 01:25:00,2.1,-3.3,30.03,NE,45,0.0,0.0,78,0.00,,,0.00,WUHU21623XXSP,2013-01-26 06:25:00,
2013-01-26 01:27:00,2.5,-2.9,30.03,NE,45,0.0,0.0,78,0.00,,,0.00,WUHU21623XXSP,2013-01-26 06:27:00,
2013-01-26 01:28:00,1.9,-3.5,30.02,NE,45,0.0,0.0,78,0.00,,,0.00,WUHU21623XXSP,2013-01-26 06:28:00,
2013-01-26 01:30:00,1.9,-3.5,30.03,NE,45,0.0,0.0,78,0.00,,,0.00,WUHU21623XXSP,2013-01-26 06:30:00,
2013-01-26 01:32:00,1.6,-3.8,30.03,NE,45,0.0,0.0,78,0.00,,,0.00,WUHU21623XXSP,2013-01-26 06:32:00,
2013-01-26 01:33:00,2.3,-3.1,30.03,NE,45,0.0,0.0,78,0.00,,,0.00,WUHU21623XXSP,2013-01-26 06:33:00,
2013-01-26 01:34:00,1.2,-4.5,30.03,NE,45,0.0,0.0,77,0.00,,,0.00,WUHU21623XXSP,2013-01-26 06:34:00,
2013-01-26 01:36:00,0.9,-4.8,30.03,NE,45,0.0,0.0,77,0.00,,,0.00,WUHU21623XXSP,2013-01-26 06:36:00,
2013-01-26 01:38:00,0.5,-5.1,30.03,NE,45,0.0,0.0,77,0.00,,,0.00,WUHU21623XXSP,2013-01-26 06:38:00,
2013-01-26 01:39:00,1.9,-3.5,30.03,NE,45,0.0,0.0,78,0.00,,,0.00,WUHU21623XXSP,2013-01-26 06:39:00,
2013-01-26 01:40:00,0.3,-5.3,30.02,NE,45,0.0,0.0,77,0.00,,,0.00,WUHU21623XXSP,2013-01-26 06:40:00,
2013-01-26 01:43:00,0.3,-5.3,30.03,NE,45,0.0,0.0,77,0.00,,,0.00,WUHU21623XXSP,2013-01-26 06:43:00,
2013-01-26 01:45:00,0.5,-4.8,30.03,NE,45,0.0,0.0,78,0.00,,,0.00,WUHU21623XXSP,2013-01-26 06:45:00,
2013-01-26 01:46:00,0.9,-4.8,30.03,NE,45,0.0,0.0,77,0.00,,,0.00,WUHU21623XXSP,2013-01-26 06:46:00,
2013-01-26 01:47:00,0.7,-5.0,30.03,NE,45,0.0,0.0,77,0.00,,,0.00,WUHU21623XXSP,2013-01-26 06:47:00,
2013-01-26 01:49:00,0.5,-5.1,30.03,NE,45,0.0,0.0,77,0.00,,,0.00,WUHU21623XXSP,2013-01-26 06:49:00,
2013-01-26 01:52:00,0.3,-5.3,30.03,NE,45,0.0,0.0,77,0.00,,,0.00,WUHU21623XXSP,2013-01-26 06:52:00,
2013-01-26 01:54:00,0.5,-5.1,30.03,NE,45,0.0,0.0,77,0.00,,,0.00,WUHU21623XXSP,2013-01-26 06:54:00,
2013-01-26 01:56:00,0.7,-4.7,30.03,NE,45,0.0,0.0,78,0.00,,,0.00,WUHU21623XXSP,2013-01-26 06:56:00,
2013-01-26 01:58:00,0.7,-5.0,30.03,NE,45,0.0,0.0,77,0.00,,,0.00,WUHU21623XXSP,2013-01-26 06:58:00,
2013-01-26 01:59:00,0.5,-5.1,30.03,NE,45,0.0,0.0,77,0.00,,,0.00,WUHU21623XXSP,2013-01-26 06:59:00,
2013-01-26 02:00:00,1.0,-4.3,30.03,NE,45,0.0,0.0,78,0.00,,,0.00,WUHU21623XXSP,2013-01-26 07:00:00,
2013-01-26 02:02:00,1.6,-3.8,30.03,NE,45,0.0,0.0,78,0.00,,,0.00,WUHU21623XXSP,2013-01-26 07:02:00,
2013-01-26 02:04:00,2.8,-2.3,30.03,NNE,22,0.0,0.0,79,0.00,,,0.00,WUHU21623XXSP,2013-01-26 07:04:00,
2013-01-26 02:06:00,0.7,-4.7,30.03,NE,45,0.0,0.0,78,0.00,,,0.00,WUHU21623XXSP,2013-01-26 07:06:00,
2013-01-26 02:08:00,3.6,-1.9,30.03,NNE,22,0.0,0.0,78,0.00,,,0.00,WUHU21623XXSP,2013-01-26 07:08:00,
2013-01-26 02:10:00,3.7,-1.4,30.03,NE,45,0.0,0.0,79,0.00,,,0.00,WUHU21623XXSP,2013-01-26 07:10:00,
2013-01-26 02:12:00,1.6,-3.8,30.03,NE,45,0.0,0.0,78,0.00,,,0.00,WUHU21623XXSP,2013-01-26 07:12:00,
2013-01-26 02:15:00,4.6,-0.5,30.03,NE,45,0.0,0.0,79,0.00,,,0.00,WUHU21623XXSP,2013-01-26 07:15:00,
2013-01-26 02:17:00,4.8,-0.3,30.03,NNE,22,0.0,0.0,79,0.00,,,0.00,WUHU21623XXSP,2013-01-26 07:17:00,
2013-01-26 02:18:00,3.6,-1.9,30.03,NNE,22,0.0,0.0,78,0.00,,,0.00,WUHU21623XXSP,2013-01-26 07:18:00,
2013-01-26 02:19:00,4.8,-0.3,30.03,NNE,22,0.0,0.0,79,0.00,,,0.00,WUHU21623XXSP,2013-01-26 07:19:00,
2013-01-26 02:21:00,4.8,-0.3,30.03,NNE,22,0.0,0.0,79,0.00,,,0.00,WUHU21623XXSP,2013-01-26 07:21:00,
2013-01-26 02:23:00,4.8,-0.6,30.03,NNE,22,0.0,0.0,78,0.00,,,0.00,WUHU21623XXSP,2013-01-26 07:23:00,
2013-01-26 02:24:00,4.6,-0.5,30.03,NE,45,0.0,0.0,79,0.00,,,0.00,WUHU21623XXSP,2013-01-26 07:24:00,
2013-01-26 02:25:00,4.6,-0.5,30.03,NNE,22,0.0,0.0,79,0.00,,,0.00,WUHU21623XXSP,2013-01-26 07:25:00,
2013-01-26 02:27:00,4.6,-0.5,30.02,NNE,22,0.0,0.0,79,0.00,,,0.00,WUHU21623XXSP,2013-01-26 07:27:00,
2013-01-26 02:30:00,4.8,-0.3,30.03,NNE,22,0.0,0.0,79,0.00,,,0.00,WUHU21623XXSP,2013-01-26 07:30:00,
2013-01-26 02:31:00,4.8,-0.3,30.03,NNE,22,0.0,0.0,79,0.00,,,0.00,WUHU21623XXSP,2013-01-26 07:31:00,
2013-01-26 02:32:00,4.8,-0.3,30.03,NNE,22,0.0,0.0,79,0.00,,,0.00,WUHU21623XXSP,2013-01-26 07:32:00,
2013-01-26 02:34:00,4.6,-0.5,30.03,NNE,22,0.0,0.0,79,0.00,,,0.00,WUHU21623XXSP,2013-01-26 07:34:00,
2013-01-26 02:36:00,4.3,-0.9,30.03,NNE,22,0.0,0.0,79,0.00,,,0.00,WUHU21623XXSP,2013-01-26 07:36:00,
2013-01-26 02:37:00,4.6,-0.5,30.02,NNE,22,0.0,0.0,79,0.00,,,0.00,WUHU21623XXSP,2013-01-26 07:37:00,
2013-01-26 02:38:00,4.3,-0.9,30.03,NNE,22,0.0,0.0,79,0.00,,,0.00,WUHU21623XXSP,2013-01-26 07:38:00,
2013-01-26 02:40:00,4.1,-1.0,30.03,NNE,22,0.0,0.0,79,0.00,,,0.00,WUHU21623XXSP,2013-01-26 07:40:00,
2013-01-26 02:42:00,3.9,-1.2,30.03,NNE,22,0.0,0.0,79,0.00,,,0.00,WUHU21623XXSP,2013-01-26 07:42:00,
2013-01-26 02:44:00,4.6,-0.5,30.03,NNE,22,0.0,0.0,79,0.00,,,0.00,WUHU21623XXSP,2013-01-26 07:44:00,
2013-01-26 02:45:00,3.9,-1.2,30.03,NNE,22,0.0,0.0,79,0.00,,,0.00,WUHU21623XXSP,2013-01-26 07:45:00,
2013-01-26 02:47:00,3.6,-1.9,30.03,NNE,22,0.0,0.0,78,0.00,,,0.00,WUHU21623XXSP,2013-01-26 07:47:00,
2013-01-26 02:49:00,3.0,-2.4,30.03,NNE,22,0.0,0.0,78,0.00,,,0.00,WUHU21623XXSP,2013-01-26 07:49:00,
2013-01-26 02:50:00,4.1,-1.0,30.03,NNE,22,0.0,0.0,79,0.00,,,0.00,WUHU21623XXSP,2013-01-26 07:50:00,
2013-01-26 02:52:00,3.0,-2.4,30.03,NNE,22,0.0,0.0,78,0.00,,,0.00,WUHU21623XXSP,2013-01-26 07:52:00,
2013-01-26 02:55:00,2.8,-2.6,30.03,NNE,22,0.0,0.0,78,0.00,,,0.00,WUHU21623XXSP,2013-01-26 07:55:00,
2013-01-26 02:56:00,3.6,-1.9,30.03,NNE,22,0.0,0.0,78,0.00,,,0.00,WUHU21623XXSP,2013-01-26 07:56:00,
2013-01-26 02:57:00,2.3,-3.1,30.03,NNE,22,0.0,0.0,78,0.00,,,0.00,WUHU21623XXSP,2013-01-26 07:57:00,
2013-01-26 03:00:00,1.9,-3.5,30.03,NNE,22,0.0,0.0,78,0.00,,,0.00,WUHU21623XXSP,2013-01-26 08:00:00,
2013-01-26 03:02:00,3.0,-2.4,30.03,NNE,22,0.0,0.0,78,0.00,,,0.00,WUHU21623XXSP,2013-01-26 08:02:00,
2013-01-26 03:04:00,1.9,-3.5,30.03,NNE,22,0.0,0.0,78,0.00,,,0.00,WUHU21623XXSP,2013-01-26 08:04:00,
2013-01-26 03:06:00,1.9,-3.5,30.03,NNE,22,0.0,0.0,78,0.00,,,0.00,WUHU21623XXSP,2013-01-26 08:06:00,
2013-01-26 03:07:00,2.3,-3.1,30.03,NNE,22,0.0,0.0,78,0.00,,,0.00,WUHU21623XXSP,2013-01-26 08:07:00,
2013-01-26 03:08:00,1.9,-3.5,30.03,NNE,22,0.0,0.0,78,0.00,,,0.00,WUHU21623XXSP,2013-01-26 08:08:00,
2013-01-26 03:10:00,1.9,-3.5,30.03,NNE,22,0.0,0.0,78,0.00,,,0.00,WUHU21623XXSP,2013-01-26 08:10:00,
2013-01-26 03:13:00,1.9,-3.5,30.03,NNE,22,0.0,0.0,78,0.00,,,0.00,WUHU21623XXSP,2013-01-26 08:13:00,
2013-01-26 03:14:00,1.9,-3.5,30.03,NNE,22,0.0,0.0,78,0.00,,,0.00,WUHU21623XXSP,2013-01-26 08:14:00,
2013-01-26 03:15:00,1.9,-3.5,30.03,NNE,22,0.0,0.0,78,0.00,,,0.00,WUHU21623XXSP,2013-01-26 08:15:00,
2013-01-26 03:17:00,1.8,-3.6,30.03,NNE,22,0.0,0.0,78,0.00,,,0.00,WUHU21623XXSP,2013-01-26 08:17:00,
2013-01-26 03:19:00,1.6,-3.8,30.03,NNE,22,0.0,0.0,78,0.00,,,0.00,WUHU21623XXSP,2013-01-26 08:19:00,
2013-01-26 03:20:00,1.9,-3.5,30.03,NNE,22,0.0,0.0,78,0.00,,,0.00,WUHU21623XXSP,2013-01-26 08:20:00,
2013-01-26 03:21:00,1.4,-4.0,30.03,NNE,22,0.0,0.0,78,0.00,,,0.00,WUHU21623XXSP,2013-01-26 08:21:00,
2013-01-26 03:23:00,1.2,-4.2,30.04,NNE,22,0.0,0.0,78,0.00,,,0.00,WUHU21623XXSP,2013-01-26 08:23:00,
2013-01-26 03:25:00,1.0,-4.3,30.04,NNE,22,0.0,0.0,78,0.00,,,0.00,WUHU21623XXSP,2013-01-26 08:25:00,
2013-01-26 03:26:00,1.8,-3.6,30.03,NNE,22,0.0,0.0,78,0.00,,,0.00,WUHU21623XXSP,2013-01-26 08:26:00,
2013-01-26 03:27:00,0.9,-4.5,30.04,NNE,22,0.0,0.0,78,0.00,,,0.00,WUHU21623XXSP,2013-01-26 08:27:00,
2013-01-26 03:29:00,0.9,-4.5,30.04,NNE,22,0.0,0.0,78,0.00,,,0.00,WUHU21623XXSP,2013-01-26 08:29:00,
2013-01-26 03:32:00,0.7,-4.7,30.04,NNE,22,0.0,0.0,78,0.00,,,0.00,WUHU21623XXSP,2013-01-26 08:32:00,
2013-01-26 03:33:00,1.2,-4.2,30.04,NNE,22,0.0,0.0,78,0.00,,,0.00,WUHU21623XXSP,2013-01-26 08:33:00,
2013-01-26 03:34:00,0.7,-4.7,30.04,NNE,22,0.0,0.0,78,0.00,,,0.00,WUHU21623XXSP,2013-01-26 08:34:00,
2013-01-26 03:36:00,0.5,-4.8,30.04,NNE,22,0.0,0.0,78,0.00,,,0.00,WUHU21623XXSP,2013-01-26 08:36:00,
2013-01-26 03:38:00,0.3,-5.0,30.04,NNE,22,0.0,0.0,78,0.00,,,0.00,WUHU21623XXSP,2013-01-26 08:38:00,
2013-01-26 03:39:00,0.9,-4.5,30.04,NNE,22,0.0,0.0,78,0.00,,,0.00,WUHU21623XXSP,2013-01-26 08:39:00,
2013-01-26 03:40:00,0.3,-5.0,30.04,NNE,22,0.0,0.0,78,0.00,,,0.00,WUHU21623XXSP,2013-01-26 08:40:00,
2013-01-26 03:42:00,0.1,-5.2,30.03,NNE,22,0.0,0.0,78,0.00,,,0.00,WUHU21623XXSP,2013-01-26 08:42:00,
2013-01-26 03:44:00,-0.2,-5.5,30.04,NNE,22,0.0,0.0,78,0.00,,,0.00,WUHU21623XXSP,2013-01-26 08:44:00,
2013-01-26 03:46:00,0.5,-4.8,30.04,NNE,22,0.0,0.0,78,0.00,,,0.00,WUHU21623XXSP,2013-01-26 08:46:00,
2013-01-26 03:47:00,-0.6,-5.8,30.04,NNE,22,0.0,0.0,78,0.00,,,0.00,WUHU21623XXSP,2013-01-26 08:47:00,
2013-01-26 03:49:00,-0.8,-6.0,30.04,NNE,22,0.0,0.0,78,0.00,,,0.00,WUHU21623XXSP,2013-01-26 08:49:00,
2013-01-26 03:52:00,0.1,-5.2,30.03,NNE,22,0.0,0.0,78,0.00,,,0.00,WUHU21623XXSP,2013-01-26 08:52:00,
2013-01-26 03:55:00,-1.5,-6.7,30.05,NNE,22,0.0,0.0,78,0.00,,,0.00,WUHU21623XXSP,2013-01-26 08:55:00,
2013-01-26 03:57:00,-1.7,-6.9,30.05,NNE,22,0.0,0.0,78,0.00,,,0.00,WUHU21623XXSP,2013-01-26 08:57:00,
2013-01-26 03:59:00,-0.8,-6.0,30.04,NNE,22,0.0,0.0,78,0.00,,,0.00,WUHU21623XXSP,2013-01-26 08:59:00,
2013-01-26 04:02:00,-1.7,-6.9,30.05,NNE,22,0.0,0.0,78,0.00,,,0.00,WUHU21623XXSP,2013-01-26 09:02:00,
2013-01-26 04:04:00,-1.5,-6.7,30.05,NNE,22,0.0,0.0,78,0.00,,,0.00,WUHU21623XXSP,2013-01-26 09:04:00,
2013-01-26 04:06:00,-1.7,-6.9,30.05,NNE,22,0.0,0.0,78,0.00,,,0.00,WUHU21623XXSP,2013-01-26 09:06:00,
2013-01-26 04:08:00,-1.8,-7.1,30.05,NNE,22,0.0,0.0,78,0.00,,,0.00,WUHU21623XXSP,2013-01-26 09:08:00,
2013-01-26 04:09:00,-1.7,-6.9,30.05,NNE,22,0.0,0.0,78,0.00,,,0.00,WUHU21623XXSP,2013-01-26 09:09:00,
2013-01-26 04:10:00,-2.2,-7.4,30.05,NNE,22,0.0,0.0,78,0.00,,,0.00,WUHU21623XXSP,2013-01-26 09:10:00,
2013-01-26 04:12:00,-2.4,-7.6,30.05,NNE,22,0.0,0.0,78,0.00,,,0.00,WUHU21623XXSP,2013-01-26 09:12:00,
2013-01-26 04:14:00,-2.4,-7.6,30.05,NNE,22,0.0,0.0,78,0.00,,,0.00,WUHU21623XXSP,2013-01-26 09:14:00,
2013-01-26 04:16:00,-1.7,-6.9,30.05,NNE,22,0.0,0.0,78,0.00,,,0.00,WUHU21623XXSP,2013-01-26 09:16:00,
2013-01-26 04:17:00,-2.4,-7.6,30.05,NNE,22,0.0,0.0,78,0.00,,,0.00,WUHU21623XXSP,2013-01-26 09:17:00,
2013-01-26 04:19:00,-2.7,-8.0,30.05,NNE,22,0.0,0.0,78,0.00,,,0.00,WUHU21623XXSP,2013-01-26 09:19:00,
2013-01-26 04:21:00,-2.9,-8.1,30.05,NNE,22,0.0,0.0,78,0.00,,,0.00,WUHU21623XXSP,2013-01-26 09:21:00,
2013-01-26 04:22:00,-2.4,-7.6,30.05,NNE,22,0.0,0.0,78,0.00,,,0.00,WUHU21623XXSP,2013-01-26 09:22:00,
2013-01-26 04:23:00,-3.3,-8.5,30.05,NNE,22,0.0,0.0,78,0.00,,,0.00,WUHU21623XXSP,2013-01-26 09:23:00,
2013-01-26 04:25:00,-3.3,-8.5,30.06,NNE,22,0.0,0.0,78,0.00,,,0.00,WUHU21623XXSP,2013-01-26 09:25:00,
2013-01-26 04:27:00,-3.3,-8.5,30.06,NNE,22,0.0,0.0,78,0.00,,,0.00,WUHU21623XXSP,2013-01-26 09:27:00,
2013-01-26 04:29:00,-2.7,-8.0,30.05,NNE,22,0.0,0.0,78,0.00,,,0.00,WUHU21623XXSP,2013-01-26 09:29:00,
2013-01-26 04:30:00,-3.3,-8.5,30.06,SSE,157,0.0,0.0,78,0.00,,,0.00,WUHU21623XXSP,2013-01-26 09:30:00,
2013-01-26 04:32:00,-3.3,-8.5,30.05,SSE,157,0.0,0.0,78,0.00,,,0.00,WUHU21623XXSP,2013-01-26 09:32:00,
2013-01-26 04:34:00,-3.3,-8.2,30.05,SSE,157,0.0,0.0,79,0.00,,,0.00,WUHU21623XXSP,2013-01-26 09:34:00,
2013-01-26 04:35:00,-3.3,-8.5,30.06,NNE,22,0.0,0.0,78,0.00,,,0.00,WUHU21623XXSP,2013-01-26 09:35:00,
2013-01-26 04:36:00,-3.5,-8.4,30.05,SSE,157,0.0,0.0,79,0.00,,,0.00,WUHU21623XXSP,2013-01-26 09:36:00,
2013-01-26 04:38:00,-3.8,-9.0,30.05,SSE,157,0.0,0.0,78,0.00,,,0.00,WUHU21623XXSP,2013-01-26 09:38:00,
2013-01-26 04:40:00,-4.2,-9.4,30.05,SSE,157,0.0,0.0,78,0.00,,,0.00,WUHU21623XXSP,2013-01-26 09:40:00,
2013-01-26 04:41:00,-3.3,-8.5,30.05,SSE,157,0.0,0.0,78,0.00,,,0.00,WUHU21623XXSP,2013-01-26 09:41:00,
2013-01-26 04:42:00,-4.2,-9.4,30.05,SSE,157,0.0,0.0,78,0.00,,,0.00,WUHU21623XXSP,2013-01-26 09:42:00,
2013-01-26 04:44:00,-4.4,-9.6,30.05,SSE,157,0.0,0.0,78,0.00,,,0.00,WUHU21623XXSP,2013-01-26 09:44:00,
2013-01-26 04:47:00,-4.4,-9.6,30.05,SSE,157,0.0,0.0,78,0.00,,,0.00,WUHU21623XXSP,2013-01-26 09:47:00,
2013-01-26 04:48:00,-3.8,-9.0,30.05,SSE,157,0.0,0.0,78,0.00,,,0.00,WUHU21623XXSP,2013-01-26 09:48:00,
2013-01-26 04:49:00,-4.4,-9.6,30.05,SSE,157,0.0,0.0,78,0.00,,,0.00,WUHU21623XXSP,2013-01-26 09:49:00,
2013-01-26 04:52:00,-4.4,-9.6,30.05,SSE,157,0.0,0.0,78,0.00,,,0.00,WUHU21623XXSP,2013-01-26 09:52:00,
2013-01-26 04:54:00,-4.4,-9.6,30.05,SSE,157,0.0,0.0,78,0.00,,,0.00,WUHU21623XXSP,2013-01-26 09:54:00,
2013-01-26 04:55:00,-4.7,-9.9,30.05,SSE,157,0.0,0.0,78,0.00,,,0.00,WUHU21623XXSP,2013-01-26 09:55:00,
2013-01-26 04:57:00,-4.7,-9.9,30.05,SSE,157,0.0,0.0,78,0.00,,,0.00,WUHU21623XXSP,2013-01-26 09:57:00,
2013-01-26 04:59:00,-4.7,-9.9,30.05,SSE,157,0.0,0.0,78,0.00,,,0.00,WUHU21623XXSP,2013-01-26 09:59:00,
2013-01-26 05:02:00,-4.4,-9.6,30.05,SSE,157,0.0,0.0,78,0.00,,,0.00,WUHU21623XXSP,2013-01-26 10:02:00,
2013-01-26 05:04:00,-4.4,-9.6,30.05,SSE,157,0.0,0.0,78,0.00,,,0.00,WUHU21623XXSP,2013-01-26 10:04:00,
2013-01-26 05:06:00,-4.4,-9.6,30.06,SSE,157,0.0,0.0,78,0.00,,,0.00,WUHU21623XXSP,2013-01-26 10:06:00,
2013-01-26 05:07:00,-4.7,-9.9,30.05,SSE,157,0.0,0.0,78,0.00,,,0.00,WUHU21623XXSP,2013-01-26 10:07:00,
2013-01-26 05:08:00,-4.2,-9.4,30.06,SSE,157,0.0,0.0,78,0.00,,,0.00,WUHU21623XXSP,2013-01-26 10:08:00,
2013-01-26 05:10:00,-3.8,-9.0,30.06,SSE,157,0.0,0.0,78,0.00,,,0.00,WUHU21623XXSP,2013-01-26 10:10:00,
2013-01-26 05:12:00,-3.8,-9.0,30.06,SSE,157,0.0,0.0,78,0.00,,,0.00,WUHU21623XXSP,2013-01-26 10:12:00,
2013-01-26 05:14:00,-4.4,-9.6,30.05,SSE,157,0.0,0.0,78,0.00,,,0.00,WUHU21623XXSP,2013-01-26 10:14:00,
2013-01-26 05:17:00,-3.6,-8.9,30.06,SSE,157,0.0,0.0,78,0.00,,,0.00,WUHU21623XXSP,2013-01-26 10:17:00,
2013-01-26 05:19:00,-3.5,-8.7,30.07,SSE,157,0.0,0.0,78,0.00,,,0.00,WUHU21623XXSP,2013-01-26 10:19:00,
2013-01-26 05:20:00,-3.8,-9.0,30.06,SSE,157,0.0,0.0,78,0.00,,,0.00,WUHU21623XXSP,2013-01-26 10:20:00,
2013-01-26 05:21:00,-3.1,-8.3,30.06,SSE,157,0.0,0.0,78,0.00,,,0.00,WUHU21623XXSP,2013-01-26 10:21:00,
2013-01-26 05:23:00,-2.9,-8.1,30.07,SSE,157,0.0,0.0,78,0.00,,,0.00,WUHU21623XXSP,2013-01-26 10:23:00,
2013-01-26 05:25:00,-2.7,-8.0,30.07,SSE,157,0.0,0.0,78,0.00,,,0.00,WUHU21623XXSP,2013-01-26 10:25:00,
2013-01-26 05:26:00,-3.6,-8.9,30.06,SSE,157,0.0,0.0,78,0.00,,,0.00,WUHU21623XXSP,2013-01-26 10:26:00,
2013-01-26 05:27:00,-2.4,-7.6,30.07,SSE,157,0.0,0.0,78,0.00,,,0.00,WUHU21623XXSP,2013-01-26 10:27:00,
2013-01-26 05:29:00,-2.6,-7.8,30.07,SSE,157,0.0,0.0,78,0.00,,,0.00,WUHU21623XXSP,2013-01-26 10:29:00,
2013-01-26 05:31:00,-2.7,-8.0,30.07,SSE,157,0.0,0.0,78,0.00,,,0.00,WUHU21623XXSP,2013-01-26 10:31:00,
2013-01-26 05:33:00,-2.9,-8.1,30.07,SSE,157,0.0,0.0,78,0.00,,,0.00,WUHU21623XXSP,2013-01-26 10:33:00,
2013-01-26 05:34:00,-2.7,-8.0,30.08,SSE,157,0.0,0.0,78,0.00,,,0.00,WUHU21623XXSP,2013-01-26 10:34:00,
2013-01-26 05:36:00,-2.6,-7.8,30.07,SSE,157,0.0,0.0,78,0.00,,,0.00,WUHU21623XXSP,2013-01-26 10:36:00,
2013-01-26 05:38:00,-2.4,-7.6,30.08,SSE,157,0.0,0.0,78,0.00,,,0.00,WUHU21623XXSP,2013-01-26 10:38:00,
2013-01-26 05:39:00,-2.6,-7.8,30.07,SSE,157,0.0,0.0,78,0.00,,,0.00,WUHU21623XXSP,2013-01-26 10:39:00,
2013-01-26 05:40:00,-2.6,-7.8,30.07,SSE,157,0.0,0.0,78,0.00,,,0.00,WUHU21623XXSP,2013-01-26 10:40:00,
2013-01-26 05:42:00,-2.9,-8.1,30.07,SSE,157,0.0,0.0,78,0.00,,,0.00,WUHU21623XXSP,2013-01-26 10:42:00,
2013-01-26 05:44:00,-2.9,-8.1,30.08,SSE,157,0.0,0.0,78,0.00,,,0.00,WUHU21623XXSP,2013-01-26 10:44:00,
2013-01-26 05:46:00,-2.6,-7.8,30.07,SSE,157,0.0,0.0,78,0.00,,,0.00,WUHU21623XXSP,2013-01-26 10:46:00,
2013-01-26 05:47:00,-2.9,-8.1,30.08,SSE,157,0.0,0.0,78,0.00,,,0.00,WUHU21623XXSP,2013-01-26 10:47:00,
2013-01-26 05:49:00,-2.7,-8.0,30.08,SW,225,0.0,0.0,78,0.00,,,0.00,WUHU21623XXSP,2013-01-26 10:49:00,
2013-01-26 05:52:00,-2.9,-8.1,30.07,SSE,157,0.0,0.0,78,0.00,,,0.00,WUHU21623XXSP,2013-01-26 10:52:00,
2013-01-26 05:54:00,-2.0,-7.0,30.08,WNW,292,0.0,0.0,79,0.00,,,0.00,WUHU21623XXSP,2013-01-26 10:54:00,
2013-01-26 05:55:00,-1.7,-7.0,30.08,WNW,292,0.0,0.0,79,0.00,,,0.00,WUHU21623XXSP,2013-01-26 10:55:00,
2013-01-26 05:57:00,-1.5,-6.4,30.08,WNW,292,0.0,0.0,79,0.00,,,0.00,WUHU21623XXSP,2013-01-26 10:57:00,
2013-01-26 05:59:00,-2.7,-8.0,30.08,SW,225,0.0,0.0,78,0.00,,,0.00,WUHU21623XXSP,2013-01-26 10:59:00,
2013-01-26 06:02:00,-1.5,-6.4,30.08,WNW,292,0.0,0.0,79,0.00,,,0.00,WUHU21623XXSP,2013-01-26 11:02:00,
2013-01-26 06:04:00,-2.0,-7.0,30.08,WNW,292,0.0,0.0,79,0.00,,,0.00,WUHU21623XXSP,2013-01-26 11:04:00,
2013-01-26 06:06:00,-1.7,-6.9,30.09,WNW,292,0.0,0.0,78,0.00,,,0.00,WUHU21623XXSP,2013-01-26 11:06:00,
2013-01-26 06:08:00,-1.8,-7.1,30.08,WNW,292,0.0,0.0,78,0.00,,,0.00,WUHU21623XXSP,2013-01-26 11:08:00,
2013-01-26 06:09:00,-1.3,-6.3,30.08,WNW,292,0.0,0.0,79,0.00,,,0.00,WUHU21623XXSP,2013-01-26 11:09:00,
2013-01-26 06:10:00,-1.7,-6.9,30.08,WNW,292,0.0,0.0,78,0.00,,,0.00,WUHU21623XXSP,2013-01-26 11:10:00,
2013-01-26 06:12:00,-1.8,-7.1,30.08,WNW,292,0.0,0.0,78,0.00,,,0.00,WUHU21623XXSP,2013-01-26 11:12:00,
2013-01-26 06:14:00,-2.0,-7.3,30.08,WNW,292,0.0,0.0,78,0.00,,,0.00,WUHU21623XXSP,2013-01-26 11:14:00,
2013-01-26 06:16:00,-1.7,-6.9,30.09,WNW,292,0.0,0.0,78,0.00,,,0.00,WUHU21623XXSP,2013-01-26 11:16:00,
2013-01-26 06:17:00,-2.2,-7.4,30.08,WNW,292,0.0,0.0,78,0.00,,,0.00,WUHU21623XXSP,2013-01-26 11:17:00,
2013-01-26 06:19:00,-2.4,-7.6,30.08,WNW,292,0.0,0.0,78,0.00,,,0.00,WUHU21623XXSP,2013-01-26 11:19:00,
2013-01-26 06:21:00,-2.4,-7.6,30.08,WNW,292,0.0,0.0,78,0.00,,,0.00,WUHU21623XXSP,2013-01-26 11:21:00,
2013-01-26 06:22:00,-1.8,-7.1,30.08,WNW,292,0.0,0.0,78,0.00,,,0.00,WUHU21623XXSP,2013-01-26 11:22:00,
2013-01-26 06:23:00,-2.6,-7.8,30.08,WNW,292,0.0,0.0,78,0.00,,,0.00,WUHU21623XXSP,2013-01-26 11:23:00,
2013-01-26 06:25:00,-2.7,-8.0,30.08,WNW,292,0.0,0.0,78,0.00,,,0.00,WUHU21623XXSP,2013-01-26 11:25:00,
2013-01-26 06:27:00,-3.1,-8.3,30.08,WNW,292,0.0,0.0,78,0.00,,,0.00,WUHU21623XXSP,2013-01-26 11:27:00,
2013-01-26 06:28:00,-2.4,-7.6,30.08,WNW,292,0.0,0.0,78,0.00,,,0.00,WUHU21623XXSP,2013-01-26 11:28:00,
2013-01-26 06:29:00,-3.5,-8.7,30.08,WNW,292,0.0,0.0,78,0.00,,,0.00,WUHU21623XXSP,2013-01-26 11:29:00,
2013-01-26 06:31:00,-3.8,-9.0,30.08,WNW,292,0.0,0.0,78,0.00,,,0.00,WUHU21623XXSP,2013-01-26 11:31:00,
2013-01-26 06:34:00,-3.8,-9.0,30.09,West,270,0.0,0.0,78,0.00,,,0.00,WUHU21623XXSP,2013-01-26 11:34:00,
2013-01-26 06:35:00,-2.7,-8.0,30.08,WNW,292,0.0,0.0,78,0.00,,,0.00,WUHU21623XXSP,2013-01-26 11:35:00,
2013-01-26 06:36:00,-4.2,-9.4,30.08,West,270,0.0,0.0,78,0.00,,,0.00,WUHU21623XXSP,2013-01-26 11:36:00,
2013-01-26 06:38:00,-4.4,-9.6,30.08,West,270,0.0,0.0,78,0.00,,,0.00,WUHU21623XXSP,2013-01-26 11:38:00,
2013-01-26 06:40:00,-4.4,-9.6,30.08,West,270,0.0,0.0,78,0.00,,,0.00,WUHU21623XXSP,2013-01-26 11:40:00,
2013-01-26 06:41:00,-3.8,-9.0,30.08,WNW,292,0.0,0.0,78,0.00,,,0.00,WUHU21623XXSP,2013-01-26 11:41:00,
2013-01-26 06:42:00,-4.7,-9.9,30.09,West,270,0.0,0.0,78,0.00,,,0.00,WUHU21623XXSP,2013-01-26 11:42:00,
2013-01-26 06:44:00,-4.9,-10.1,30.09,West,270,0.0,0.0,78,0.00,,,0.00,WUHU21623XXSP,2013-01-26 11:44:00,
2013-01-26 06:46:00,-4.9,-10.1,30.09,West,270,0.0,0.0,78,0.00,,,0.00,WUHU21623XXSP,2013-01-26 11:46:00,
2013-01-26 06:48:00,-4.4,-9.6,30.08,West,270,0.0,0.0,78,0.00,,,0.00,WUHU21623XXSP,2013-01-26 11:48:00,
2013-01-26 06:49:00,-5.1,-10.3,30.09,WNW,292,0.0,0.0,78,0.00,,,0.00,WUHU21623XXSP,2013-01-26 11:49:00,
2013-01-26 06:51:00,-5.1,-10.3,30.09,WNW,292,0.0,0.0,78,0.00,,,0.00,WUHU21623XXSP,2013-01-26 11:51:00,
2013-01-26 06:53:00,-5.3,-10.5,30.09,West,270,0.0,0.0,78,0.00,,,0.00,WUHU21623XXSP,2013-01-26 11:53:00,
2013-01-26 06:54:00,-4.9,-10.1,30.09,West,270,0.0,0.0,78,0.00,,,0.00,WUHU21623XXSP,2013-01-26 11:54:00,
2013-01-26 06:55:00,-5.4,-10.7,30.09,West,270,0.0,0.0,78,0.00,,,0.00,WUHU21623XXSP,2013-01-26 11:55:00,
2013-01-26 06:57:00,-5.6,-10.8,30.10,West,270,0.0,0.0,78,0.00,,,0.00,WUHU21623XXSP,2013-01-26 11:57:00,
2013-01-26 06:59:00,-6.0,-11.2,30.09,West,270,0.0,0.0,78,0.00,,,0.00,WUHU21623XXSP,2013-01-26 11:59:00,
2013-01-26 07:01:00,-5.1,-10.3,30.09,WNW,292,0.0,0.0,78,0.00,,,0.00,WUHU21623XXSP,2013-01-26 12:01:00,
2013-01-26 07:04:00,-6.0,-11.2,30.09,West,270,0.0,0.0,78,0.00,,,0.00,WUHU21623XXSP,2013-01-26 12:04:00,
2013-01-26 07:06:00,-6.0,-11.2,30.10,West,270,0.0,0.0,78,0.00,,,0.00,WUHU21623XXSP,2013-01-26 12:06:00,
2013-01-26 07:07:00,-5.6,-10.8,30.10,West,270,0.0,0.0,78,0.00,,,0.00,WUHU21623XXSP,2013-01-26 12:07:00,
2013-01-26 07:08:00,-5.8,-11.0,30.10,West,270,0.0,0.0,78,0.00,,,0.00,WUHU21623XXSP,2013-01-26 12:08:00,
2013-01-26 07:10:00,-5.8,-11.0,30.10,West,270,0.0,0.0,78,0.00,,,0.00,WUHU21623XXSP,2013-01-26 12:10:00,
2013-01-26 07:12:00,-6.0,-11.2,30.10,West,270,0.0,0.0,78,0.00,,,0.00,WUHU21623XXSP,2013-01-26 12:12:00,
2013-01-26 07:13:00,-6.0,-11.2,30.09,West,270,0.0,0.0,78,0.00,,,0.00,WUHU21623XXSP,2013-01-26 12:13:00,
2013-01-26 07:14:00,-6.0,-11.2,30.10,West,270,0.0,0.0,78,0.00,,,0.00,WUHU21623XXSP,2013-01-26 12:14:00,
2013-01-26 07:16:00,-6.0,-11.2,30.10,West,270,0.0,0.0,78,0.00,,,0.00,WUHU21623XXSP,2013-01-26 12:16:00,
2013-01-26 07:19:00,-6.0,-11.2,30.10,West,270,0.0,0.0,78,0.00,,,0.00,WUHU21623XXSP,2013-01-26 12:19:00,
2013-01-26 07:20:00,-5.8,-11.0,30.10,West,270,0.0,0.0,78,0.00,,,0.00,WUHU21623XXSP,2013-01-26 12:20:00,
2013-01-26 07:21:00,-5.8,-11.0,30.10,West,270,0.0,0.0,78,0.00,,,0.00,WUHU21623XXSP,2013-01-26 12:21:00,
2013-01-26 07:23:00,-5.6,-10.8,30.10,West,270,0.0,0.0,78,0.00,,,0.00,WUHU21623XXSP,2013-01-26 12:23:00,
2013-01-26 07:25:00,-5.8,-11.0,30.10,West,270,0.0,0.0,78,0.00,,,0.00,WUHU21623XXSP,2013-01-26 12:25:00,
2013-01-26 07:26:00,-6.0,-11.2,30.10,West,270,0.0,0.0,78,0.00,,,0.00,WUHU21623XXSP,2013-01-26 12:26:00,
2013-01-26 07:27:00,-6.0,-11.2,30.10,West,270,0.0,0.0,78,0.00,,,0.00,WUHU21623XXSP,2013-01-26 12:27:00,
2013-01-26 07:29:00,-6.0,-11.2,30.10,West,270,0.0,0.0,78,0.00,,,0.00,WUHU21623XXSP,2013-01-26 12:29:00,
2013-01-26 07:31:00,-6.0,-11.2,30.10,West,270,0.0,0.0,78,0.00,,,0.00,WUHU21623XXSP,2013-01-26 12:31:00,
2013-01-26 07:33:00,-5.6,-10.8,30.10,West,270,0.0,0.0,78,0.00,,,0.00,WUHU21623XXSP,2013-01-26 12:33:00,
2013-01-26 07:36:00,-6.0,-11.2,30.11,West,270,0.0,0.0,78,0.00,,,0.00,WUHU21623XXSP,2013-01-26 12:36:00,
2013-01-26 07:38:00,-6.0,-11.2,30.11,West,270,0.0,0.0,78,0.00,,,0.00,WUHU21623XXSP,2013-01-26 12:38:00,
2013-01-26 07:39:00,-6.0,-11.2,30.10,West,270,0.0,0.0,78,0.00,,,0.00,WUHU21623XXSP,2013-01-26 12:39:00,
2013-01-26 07:40:00,-6.0,-11.2,30.11,West,270,0.0,0.0,78,0.00,,,0.00,WUHU21623XXSP,2013-01-26 12:40:00,
2013-01-26 07:42:00,-5.6,-10.8,30.11,West,270,0.0,0.0,78,0.00,,,0.00,WUHU21623XXSP,2013-01-26 12:42:00,
2013-01-26 07:44:00,-5.4,-10.7,30.11,West,270,0.0,0.0,78,0.00,,,0.00,WUHU21623XXSP,2013-01-26 12:44:00,
2013-01-26 07:46:00,-6.0,-11.2,30.11,West,270,0.0,0.0,78,0.00,,,0.00,WUHU21623XXSP,2013-01-26 12:46:00,
2013-01-26 07:48:00,-5.3,-10.5,30.12,West,270,0.0,0.0,78,0.00,,,0.00,WUHU21623XXSP,2013-01-26 12:48:00,
2013-01-26 07:51:00,-5.1,-10.3,30.12,West,270,0.0,0.0,78,0.00,,,0.00,WUHU21623XXSP,2013-01-26 12:51:00,
2013-01-26 07:52:00,-5.6,-10.8,30.11,West,270,0.0,0.0,78,0.00,,,0.00,WUHU21623XXSP,2013-01-26 12:52:00,
2013-01-26 07:53:00,-4.7,-9.9,30.12,West,270,0.0,0.0,78,0.00,,,0.00,WUHU21623XXSP,2013-01-26 12:53:00,
2013-01-26 07:55:00,-4.5,-9.8,30.12,West,270,0.0,0.0,78,0.00,,,0.00,WUHU21623XXSP,2013-01-26 12:55:00,
2013-01-26 07:57:00,-4.2,-9.4,30.12,West,270,0.0,0.0,78,0.00,,,0.00,WUHU21623XXSP,2013-01-26 12:57:00,
2013-01-26 07:59:00,-3.8,-9.0,30.12,West,270,0.0,0.0,78,0.00,,,0.00,WUHU21623XXSP,2013-01-26 12:59:00,
2013-01-26 08:01:00,-5.1,-10.3,30.12,West,270,0.0,0.0,78,0.00,,,0.00,WUHU21623XXSP,2013-01-26 13:01:00,
2013-01-26 08:04:00,-3.5,-8.7,30.12,West,270,0.0,0.0,78,0.00,,,0.00,WUHU21623XXSP,2013-01-26 13:04:00,
2013-01-26 08:06:00,-3.3,-8.5,30.12,West,270,0.0,0.0,78,0.00,,,0.00,WUHU21623XXSP,2013-01-26 13:06:00,
2013-01-26 08:07:00,-4.2,-9.4,30.12,West,270,0.0,0.0,78,0.00,,,0.00,WUHU21623XXSP,2013-01-26 13:07:00,
2013-01-26 08:08:00,-3.3,-8.5,30.12,West,270,0.0,0.0,78,0.00,,,0.00,WUHU21623XXSP,2013-01-26 13:08:00,
2013-01-26 08:10:00,-2.7,-8.0,30.12,West,270,0.0,0.0,78,0.00,,,0.00,WUHU21623XXSP,2013-01-26 13:10:00,
2013-01-26 08:12:00,-2.4,-7.6,30.12,WNW,292,0.0,0.0,78,0.00,,,0.00,WUHU21623XXSP,2013-01-26 13:12:00,
2013-01-26 08:14:00,-3.5,-8.7,30.12,West,270,0.0,0.0,78,0.00,,,0.00,WUHU21623XXSP,2013-01-26 13:14:00,
2013-01-26 08:16:00,-1.3,-6.3,30.12,WNW,292,0.0,0.0,79,0.00,,,0.00,WUHU21623XXSP,2013-01-26 13:16:00,
2013-01-26 08:18:00,-0.8,-5.7,30.12,WNW,292,0.0,0.0,79,0.00,,,0.00,WUHU21623XXSP,2013-01-26 13:18:00,
2013-01-26 08:20:00,-2.7,-8.0,30.12,West,270,0.0,0.0,78,0.00,,,0.00,WUHU21623XXSP,2013-01-26 13:20:00,
2013-01-26 08:21:00,-0.2,-5.2,30.12,WNW,292,0.0,0.0,79,0.00,,,0.00,WUHU21623XXSP,2013-01-26 13:21:00,
2013-01-26 08:23:00,0.1,-5.2,30.12,WNW,292,0.0,0.0,78,0.00,,,0.00,WUHU21623XXSP,2013-01-26 13:23:00,
2013-01-26 08:25:00,0.3,-5.0,30.12,WNW,292,0.0,0.0,78,0.00,,,0.00,WUHU21623XXSP,2013-01-26 13:25:00,
2013-01-26 08:26:00,-1.3,-6.3,30.12,WNW,292,0.0,0.0,79,0.00,,,0.00,WUHU21623XXSP,2013-01-26 13:26:00,
2013-01-26 08:27:00,1.0,-4.3,30.12,WNW,292,0.0,0.0,78,0.00,,,0.00,WUHU21623XXSP,2013-01-26 13:27:00,
2013-01-26 08:29:00,1.6,-3.6,30.12,WNW,292,0.0,0.0,79,0.00,,,0.00,WUHU21623XXSP,2013-01-26 13:29:00,
2013-01-26 08:31:00,2.1,-3.3,30.13,WNW,292,0.0,0.0,78,0.00,,,0.00,WUHU21623XXSP,2013-01-26 13:31:00,
2013-01-26 08:33:00,2.5,-2.9,30.13,WNW,292,0.0,0.0,78,0.00,,,0.00,WUHU21623XXSP,2013-01-26 13:33:00,
2013-01-26 08:36:00,2.8,-2.6,30.13,WNW,292,0.0,0.0,78,0.00,,,0.00,WUHU21623XXSP,2013-01-26 13:36:00,
2013-01-26 08:38:00,2.8,-2.6,30.13,West,270,0.0,0.0,78,0.00,,,0.00,WUHU21623XXSP,2013-01-26 13:38:00,
2013-01-26 08:39:00,1.6,-3.6,30.12,WNW,292,0.0,0.0,79,0.00,,,0.00,WUHU21623XXSP,2013-01-26 13:39:00,
2013-01-26 08:40:00,2.8,-2.6,30.13,WNW,292,0.0,0.0,78,0.00,,,0.00,WUHU21623XXSP,2013-01-26 13:40:00,
2013-01-26 08:42:00,2.8,-2.6,30.13,WNW,292,0.0,0.0,78,0.00,,,0.00,WUHU21623XXSP,2013-01-26 13:42:00,
2013-01-26 08:44:00,3.0,-2.4,30.13,WNW,292,0.0,0.0,78,0.00,,,0.00,WUHU21623XXSP,2013-01-26 13:44:00,
2013-01-26 08:46:00,3.2,-2.2,30.13,West,270,0.0,0.0,78,0.00,,,0.00,WUHU21623XXSP,2013-01-26 13:46:00,
2013-01-26 08:48:00,3.6,-1.9,30.13,WNW,292,0.0,0.0,78,0.00,,,0.00,WUHU21623XXSP,2013-01-26 13:48:00,
2013-01-26 08:50:00,3.9,-1.5,30.13,WNW,292,0.0,0.0,78,0.00,,,0.00,WUHU21623XXSP,2013-01-26 13:50:00,
2013-01-26 08:53:00,3.9,-1.5,30.13,West,270,0.0,0.0,78,0.00,,,0.00,WUHU21623XXSP,2013-01-26 13:53:00,
2013-01-26 08:55:00,4.1,-1.3,30.13,WNW,292,0.0,0.0,78,0.00,,,0.00,WUHU21623XXSP,2013-01-26 13:55:00,
2013-01-26 08:57:00,4.3,-1.2,30.13,WNW,292,0.0,0.0,78,0.00,,,0.00,WUHU21623XXSP,2013-01-26 13:57:00,
2013-01-26 08:59:00,4.3,-1.2,30.13,WSW,247,0.0,0.0,78,0.00,,,0.00,WUHU21623XXSP,2013-01-26 13:59:00,
2013-01-26 09:01:00,4.6,-0.8,30.13,WSW,247,0.0,0.0,78,0.00,,,0.00,WUHU21623XXSP,2013-01-26 14:01:00,
2013-01-26 09:03:00,4.8,-0.9,30.13,WSW,247,0.0,0.0,77,0.00,,,0.00,WUHU21623XXSP,2013-01-26 14:03:00,
2013-01-26 09:06:00,4.8,-0.9,30.14,WSW,247,0.0,0.0,77,0.00,,,0.00,WUHU21623XXSP,2013-01-26 14:06:00,
2013-01-26 09:08:00,4.8,-0.9,30.13,WSW,247,0.0,0.0,77,0.00,,,0.00,WUHU21623XXSP,2013-01-26 14:08:00,
2013-01-26 09:10:00,5.2,-0.5,30.14,West,270,0.0,0.0,77,0.00,,,0.00,WUHU21623XXSP,2013-01-26 14:10:00,
2013-01-26 09:12:00,5.2,-0.5,30.14,West,270,0.0,0.0,77,0.00,,,0.00,WUHU21623XXSP,2013-01-26 14:12:00,
2013-01-26 09:14:00,5.4,-0.4,30.14,West,270,0.0,0.0,77,0.00,,,0.00,WUHU21623XXSP,2013-01-26 14:14:00,
2013-01-26 09:16:00,5.5,-0.2,30.14,WNW,292,0.0,0.0,77,0.00,,,0.00,WUHU21623XXSP,2013-01-26 14:16:00,
2013-01-26 09:18:00,5.9,-0.1,30.14,WNW,292,0.0,0.0,76,0.00,,,0.00,WUHU21623XXSP,2013-01-26 14:18:00,
2013-01-26 09:20:00,6.1,0.1,30.14,WNW,292,0.0,0.0,76,0.00,,,0.00,WUHU21623XXSP,2013-01-26 14:20:00,
2013-01-26 09:23:00,6.4,0.1,30.14,WNW,292,0.0,0.0,75,0.00,,,0.00,WUHU21623XXSP,2013-01-26 14:23:00,
2013-01-26 09:25:00,6.6,0.3,30.14,NW,315,0.0,0.0,75,0.00,,,0.00,WUHU21623XXSP,2013-01-26 14:25:00,
2013-01-26 09:27:00,6.6,0.0,30.14,NW,315,0.0,0.0,74,0.00,,,0.00,WUHU21623XXSP,2013-01-26 14:27:00,
2013-01-26 09:29:00,7.0,0.4,30.14,NW,315,0.0,0.0,74,0.00,,,0.00,WUHU21623XXSP,2013-01-26 14:29:00,
2013-01-26 09:31:00,7.0,0.1,30.14,West,270,0.0,0.0,73,0.00,,,0.00,WUHU21623XXSP,2013-01-26 14:31:00,
2013-01-26 09:33:00,7.2,0.3,30.15,WNW,292,0.0,0.0,73,0.00,,,0.00,WUHU21623XXSP,2013-01-26 14:33:00,
2013-01-26 09:35:00,7.3,0.5,30.15,WNW,292,0.0,0.0,73,0.00,,,0.00,WUHU21623XXSP,2013-01-26 14:35:00,
2013-01-26 09:38:00,7.5,0.6,30.15,NW,315,0.0,0.0,73,0.00,,,0.00,WUHU21623XXSP,2013-01-26 14:38:00,
2013-01-26 09:40:00,7.7,0.5,30.15,WNW,292,0.0,0.0,72,0.00,,,0.00,WUHU21623XXSP,2013-01-26 14:40:00,
2013-01-26 09:42:00,7.7,0.5,30.15,WNW,292,0.0,0.0,72,0.00,,,0.00,WUHU21623XXSP,2013-01-26 14:42:00,
2013-01-26 09:44:00,8.1,0.9,30.15,West,270,0.0,0.0,72,0.00,,,0.00,WUHU21623XXSP,2013-01-26 14:44:00,
2013-01-26 09:46:00,8.4,1.3,30.16,WNW,292,0.0,0.0,72,0.00,,,0.00,WUHU21623XXSP,2013-01-26 14:46:00,
2013-01-26 09:48:00,9.0,1.5,30.15,West,270,0.0,0.0,71,0.00,,,0.00,WUHU21623XXSP,2013-01-26 14:48:00,
2013-01-26 09:50:00,9.3,1.8,30.15,West,270,0.0,0.0,71,0.00,,,0.00,WUHU21623XXSP,2013-01-26 14:50:00,
2013-01-26 09:53:00,9.7,2.1,30.15,West,270,0.0,0.0,71,0.00,,,0.00,WUHU21623XXSP,2013-01-26 14:53:00,
2013-01-26 09:55:00,10.0,1.8,30.15,NW,315,0.0,0.0,69,0.00,,,0.00,WUHU21623XXSP,2013-01-26 14:55:00,
2013-01-26 09:57:00,9.7,1.5,30.16,WNW,292,0.0,0.0,69,0.00,,,0.00,WUHU21623XXSP,2013-01-26 14:57:00,
2013-01-26 09:59:00,9.7,1.5,30.16,WNW,292,0.0,0.0,69,0.00,,,0.00,WUHU21623XXSP,2013-01-26 14:59:00,
2013-01-26 10:01:00,10.0,1.8,30.16,WNW,292,0.0,0.0,69,0.00,,,0.00,WUHU21623XXSP,2013-01-26 15:01:00,
2013-01-26 10:03:00,9.7,1.2,30.16,WNW,292,0.0,0.0,68,0.00,,,0.00,WUHU21623XXSP,2013-01-26 15:03:00,
2013-01-26 10:05:00,9.5,1.0,30.16,WNW,292,0.0,0.0,68,0.00,,,0.00,WUHU21623XXSP,2013-01-26 15:05:00,
2013-01-26 10:08:00,9.3,0.8,30.16,NW,315,0.0,0.0,68,0.00,,,0.00,WUHU21623XXSP,2013-01-26 15:08:00,
2013-01-26 10:10:00,9.7,1.2,30.16,WNW,292,0.0,0.0,68,0.00,,,0.00,WUHU21623XXSP,2013-01-26 15:10:00,
2013-01-26 10:12:00,10.0,1.5,30.16,West,270,0.0,0.0,68,0.00,,,0.00,WUHU21623XXSP,2013-01-26 15:12:00,
2013-01-26 10:14:00,10.4,1.5,30.16,WNW,292,0.0,0.0,67,0.00,,,0.00,WUHU21623XXSP,2013-01-26 15:14:00,
2013-01-26 10:16:00,10.2,1.0,30.16,WNW,292,0.0,0.0,66,0.00,,,0.00,WUHU21623XXSP,2013-01-26 15:16:00,
2013-01-26 10:18:00,10.2,1.3,30.16,West,270,0.0,0.0,67,0.00,,,0.00,WUHU21623XXSP,2013-01-26 15:18:00,
2013-01-26 10:20:00,10.9,1.7,30.16,West,270,0.0,0.0,66,0.00,,,0.00,WUHU21623XXSP,2013-01-26 15:20:00,
2013-01-26 10:23:00,11.7,2.4,30.16,West,270,0.0,0.0,66,0.00,,,0.00,WUHU21623XXSP,2013-01-26 15:23:00,
2013-01-26 10:25:00,11.7,1.7,30.16,NNW,337,0.0,0.0,64,0.00,,,0.00,WUHU21623XXSP,2013-01-26 15:25:00,
2013-01-26 10:27:00,11.5,1.5,30.16,West,270,0.0,0.0,64,0.00,,,0.00,WUHU21623XXSP,2013-01-26 15:27:00,
2013-01-26 10:29:00,12.0,2.0,30.16,West,270,0.0,0.0,64,0.00,,,0.00,WUHU21623XXSP,2013-01-26 15:29:00,
2013-01-26 10:31:00,12.4,2.1,30.16,West,270,0.0,0.0,63,0.00,,,0.00,WUHU21623XXSP,2013-01-26 15:31:00,
2013-01-26 10:33:00,12.9,2.9,30.16,WNW,292,0.0,0.0,64,0.00,,,0.00,WUHU21623XXSP,2013-01-26 15:33:00,
2013-01-26 10:35:00,13.8,3.2,30.17,West,270,0.0,0.0,62,0.00,,,0.00,WUHU21623XXSP,2013-01-26 15:35:00,
2013-01-26 10:38:00,13.6,2.3,30.16,NW,315,0.0,0.0,60,0.00,,,0.00,WUHU21623XXSP,2013-01-26 15:38:00,
2013-01-26 10:40:00,13.8,2.8,30.16,WNW,292,0.0,0.0,61,0.00,,,0.00,WUHU21623XXSP,2013-01-26 15:40:00,
2013-01-26 10:42:00,14.4,2.6,30.16,SW,225,0.0,0.0,59,0.00,,,0.00,WUHU21623XXSP,2013-01-26 15:42:00,
2013-01-26 10:44:00,14.2,2.0,30.16,WNW,292,0.0,0.0,58,0.00,,,0.00,WUHU21623XXSP,2013-01-26 15:44:00,
2013-01-26 10:46:00,13.8,1.7,30.16,NW,315,0.0,0.0,58,0.00,,,0.00,WUHU21623XXSP,2013-01-26 15:46:00,
2013-01-26 10:48:00,13.8,2.1,30.16,WNW,292,0.0,0.0,59,0.00,,,0.00,WUHU21623XXSP,2013-01-26 15:48:00,
2013-01-26 10:50:00,13.6,1.5,30.16,WNW,292,0.0,0.0,58,0.00,,,0.00,WUHU21623XXSP,2013-01-26 15:50:00,
2013-01-26 10:53:00,13.8,2.1,30.16,WNW,292,0.0,0.0,59,0.00,,,0.00,WUHU21623XXSP,2013-01-26 15:53:00,
2013-01-26 10:55:00,14.5,2.8,30.16,WNW,292,0.0,0.0,59,0.00,,,0.00,WUHU21623XXSP,2013-01-26 15:55:00,
2013-01-26 10:57:00,14.7,2.1,30.16,West,270,0.0,0.0,57,0.00,,,0.00,WUHU21623XXSP,2013-01-26 15:57:00,
2013-01-26 10:59:00,15.1,2.9,30.16,North,0,0.0,0.0,58,0.00,,,0.00,WUHU21623XXSP,2013-01-26 15:59:00,
2013-01-26 11:01:00,14.9,2.7,30.16,North,0,0.0,0.0,58,0.00,,,0.00,WUHU21623XXSP,2013-01-26 16:01:00,
2013-01-26 11:03:00,14.9,1.9,30.15,West,270,0.0,0.0,56,0.00,,,0.00,WUHU21623XXSP,2013-01-26 16:03:00,
2013-01-26 11:05:00,14.7,1.4,30.16,WNW,292,0.0,0.0,55,0.00,,,0.00,WUHU21623XXSP,2013-01-26 16:05:00,
2013-01-26 11:07:00,14.7,1.4,30.16,NW,315,0.0,0.0,55,0.00,,,0.00,WUHU21623XXSP,2013-01-26 16:07:00,
2013-01-26 11:10:00,14.4,0.6,30.16,NNW,337,0.0,0.0,54,0.00,,,0.00,WUHU21623XXSP,2013-01-26 16:10:00,
2013-01-26 11:12:00,14.2,0.8,30.15,NW,315,0.0,0.0,55,0.00,,,0.00,WUHU21623XXSP,2013-01-26 16:12:00,
2013-01-26 11:14:00,14.2,0.4,30.16,WNW,292,0.0,0.0,54,0.00,,,0.00,WUHU21623XXSP,2013-01-26 16:14:00,
2013-01-26 11:16:00,14.4,1.0,30.16,NNW,337,0.0,0.0,55,0.00,,,0.00,WUHU21623XXSP,2013-01-26 16:16:00,
2013-01-26 11:18:00,13.8,-0.3,30.16,NNW,337,7.6,7.6,53,0.00,,,0.00,WUHU21623XXSP,2013-01-26 16:18:00,
2013-01-26 11:20:00,13.8,0.1,30.15,NNW,337,2.5,7.6,54,0.00,,,0.00,WUHU21623XXSP,2013-01-26 16:20:00,
2013-01-26 11:22:00,14.2,0.4,30.16,WSW,247,3.8,7.6,54,0.00,,,0.00,WUHU21623XXSP,2013-01-26 16:22:00,
2013-01-26 11:25:00,14.2,0.1,30.15,WSW,247,3.6,7.6,53,0.00,,,0.00,WUHU21623XXSP,2013-01-26 16:25:00,
2013-01-26 11:27:00,14.9,0.8,30.15,West,270,0.0,7.6,53,0.00,,,0.00,WUHU21623XXSP,2013-01-26 16:27:00,
2013-01-26 11:29:00,14.7,0.2,30.15,WNW,292,5.1,5.1,52,0.00,,,0.00,WUHU21623XXSP,2013-01-26 16:29:00,
2013-01-26 11:31:00,14.7,0.6,30.15,SW,225,6.5,6.5,53,0.00,,,0.00,WUHU21623XXSP,2013-01-26 16:31:00,
2013-01-26 11:33:00,14.9,0.4,30.15,WSW,247,8.7,8.7,52,0.00,,,0.00,WUHU21623XXSP,2013-01-26 16:33:00,
2013-01-26 11:35:00,14.9,0.4,30.15,WNW,292,6.3,8.7,52,0.00,,,0.00,WUHU21623XXSP,2013-01-26 16:35:00,
2013-01-26 11:38:00,14.9,0.4,30.14,NW,315,6.9,8.7,52,0.00,,,0.00,WUHU21623XXSP,2013-01-26 16:38:00,
2013-01-26 11:40:00,14.2,-0.3,30.15,West,270,6.0,8.7,52,0.00,,,0.00,WUHU21623XXSP,2013-01-26 16:40:00,
2013-01-26 11:42:00,14.5,0.0,30.14,WSW,247,6.0,8.7,52,0.00,,,0.00,WUHU21623XXSP,2013-01-26 16:42:00,
2013-01-26 11:44:00,14.7,0.2,30.15,NW,315,7.6,7.6,52,0.00,,,0.00,WUHU21623XXSP,2013-01-26 16:44:00,
2013-01-26 11:46:00,14.7,0.2,30.14,WNW,292,7.4,7.6,52,0.00,,,0.00,WUHU21623XXSP,2013-01-26 16:46:00,
2013-01-26 11:48:00,14.7,0.2,30.14,WNW,292,7.6,7.6,52,0.00,,,0.00,WUHU21623XXSP,2013-01-26 16:48:00,
2013-01-26 11:50:00,14.7,0.2,30.14,WNW,292,3.1,7.6,52,0.00,,,0.00,WUHU21623XXSP,2013-01-26 16:50:00,
2013-01-26 11:52:00,15.3,1.1,30.14,NW,315,2.2,7.6,53,0.00,,,0.00,WUHU21623XXSP,2013-01-26 16:52:00,
2013-01-26 11:55:00,15.6,1.1,30.14,NW,315,5.8,7.6,52,0.00,,,0.00,WUHU21623XXSP,2013-01-26 16:55:00,
2013-01-26 11:57:00,15.4,0.5,30.14,WNW,292,2.2,7.6,51,0.00,,,0.00,WUHU21623XXSP,2013-01-26 16:57:00,
2013-01-26 11:59:00,15.3,0.3,30.14,West,270,4.5,5.8,51,0.00,,,0.00,WUHU21623XXSP,2013-01-26 16:59:00,
2013-01-26 12:01:00,15.3,0.7,30.15,WNW,292,6.5,6.5,52,0.00,,,0.00,WUHU21623XXSP,2013-01-26 17:01:00,
2013-01-26 12:03:00,15.4,0.9,30.15,WNW,292,7.8,7.8,52,0.00,,,0.00,WUHU21623XXSP,2013-01-26 17:03:00,
2013-01-26 12:05:00,15.3,0.7,30.14,WSW,247,6.7,7.8,52,0.00,,,0.00,WUHU21623XXSP,2013-01-26 17:05:00,
2013-01-26 12:08:00,15.6,1.1,30.14,NW,315,6.7,7.8,52,0.00,,,0.00,WUHU21623XXSP,2013-01-26 17:08:00,
2013-01-26 12:10:00,15.6,0.7,30.14,WNW,292,5.8,7.8,51,0.00,,,0.00,WUHU21623XXSP,2013-01-26 17:10:00,
2013-01-26 12:12:00,15.6,1.1,30.14,WSW,247,7.2,7.8,52,0.00,,,0.00,WUHU21623XXSP,2013-01-26 17:12:00,
2013-01-26 12:14:00,15.6,0.7,30.14,NW,315,2.5,7.2,51,0.00,,,0.00,WUHU21623XXSP,2013-01-26 17:14:00,
2013-01-26 12:16:00,16.2,1.6,30.14,WNW,292,2.5,7.2,52,0.00,,,0.00,WUHU21623XXSP,2013-01-26 17:16:00,
2013-01-26 12:18:00,16.7,1.7,30.15,West,270,4.3,7.2,51,0.00,,,0.00,WUHU21623XXSP,2013-01-26 17:18:00,
2013-01-26 12:20:00,16.7,0.8,30.15,NW,315,8.5,8.5,49,0.00,,,0.00,WUHU21623XXSP,2013-01-26 17:20:00,
2013-01-26 12:22:00,16.3,1.0,30.15,WNW,292,6.0,8.5,50,0.00,,,0.00,WUHU21623XXSP,2013-01-26 17:22:00,
2013-01-26 12:25:00,16.3,1.0,30.15,WNW,292,7.4,8.5,50,0.00,,,0.00,WUHU21623XXSP,2013-01-26 17:25:00,
2013-01-26 12:27:00,16.3,1.0,30.15,WNW,292,6.7,8.5,50,0.00,,,0.00,WUHU21623XXSP,2013-01-26 17:27:00,
2013-01-26 12:29:00,16.0,1.0,30.15,West,270,7.2,8.5,51,0.00,,,0.00,WUHU21623XXSP,2013-01-26 17:29:00,
2013-01-26 12:31:00,15.8,0.9,30.15,WNW,292,4.3,7.4,51,0.00,,,0.00,WUHU21623XXSP,2013-01-26 17:31:00,
2013-01-26 12:33:00,16.3,1.4,30.15,WNW,292,7.4,7.4,51,0.00,,,0.00,WUHU21623XXSP,2013-01-26 17:33:00,
2013-01-26 12:35:00,16.5,1.5,30.15,WNW,292,4.3,7.4,51,0.00,,,0.00,WUHU21623XXSP,2013-01-26 17:35:00,
2013-01-26 12:37:00,16.9,1.8,30.15,West,270,6.7,7.4,51,0.00,,,0.00,WUHU21623XXSP,2013-01-26 17:37:00,
2013-01-26 12:40:00,17.2,1.8,30.15,WSW,247,4.0,7.4,50,0.00,,,0.00,WUHU21623XXSP,2013-01-26 17:40:00,
2013-01-26 12:42:00,17.4,2.0,30.15,WSW,247,2.9,7.4,50,0.00,,,0.00,WUHU21623XXSP,2013-01-26 17:42:00,
2013-01-26 12:44:00,17.4,1.5,30.15,WSW,247,4.7,6.7,49,0.00,,,0.00,WUHU21623XXSP,2013-01-26 17:44:00,
2013-01-26 12:46:00,18.0,2.4,30.15,WSW,247,7.4,7.4,50,0.00,,,0.00,WUHU21623XXSP,2013-01-26 17:46:00,
2013-01-26 12:48:00,18.0,2.0,30.15,WSW,247,8.1,8.1,49,0.00,,,0.00,WUHU21623XXSP,2013-01-26 17:48:00,
2013-01-26 12:50:00,17.8,2.7,30.15,West,270,3.4,8.1,51,0.00,,,0.00,WUHU21623XXSP,2013-01-26 17:50:00,
2013-01-26 12:52:00,17.8,2.3,30.16,NW,315,7.4,8.1,50,0.00,,,0.00,WUHU21623XXSP,2013-01-26 17:52:00,
2013-01-26 12:54:00,16.9,1.8,30.15,NW,315,6.9,8.1,51,0.00,,,0.00,WUHU21623XXSP,2013-01-26 17:54:00,
2013-01-26 12:57:00,16.0,1.4,30.15,West,270,2.7,8.1,52,0.00,,,0.00,WUHU21623XXSP,2013-01-26 17:57:00,
2013-01-26 12:59:00,16.3,2.1,30.15,West,270,5.1,7.4,53,0.00,,,0.00,WUHU21623XXSP,2013-01-26 17:59:00,
2013-01-26 13:01:00,16.2,2.0,30.15,NNW,337,8.7,8.7,53,0.00,,,0.00,WUHU21623XXSP,2013-01-26 18:01:00,
2013-01-26 13:03:00,15.8,1.6,30.16,West,270,8.1,8.7,53,0.00,,,0.00,WUHU21623XXSP,2013-01-26 18:03:00,
2013-01-26 13:05:00,15.6,1.5,30.16,WNW,292,0.7,8.7,53,0.00,,,0.00,WUHU21623XXSP,2013-01-26 18:05:00,
2013-01-26 13:07:00,15.8,2.0,30.16,WNW,292,5.4,8.7,54,0.00,,,0.00,WUHU21623XXSP,2013-01-26 18:07:00,
2013-01-26 13:10:00,16.0,1.8,30.16,NNW,337,8.3,8.7,53,0.00,,,0.00,WUHU21623XXSP,2013-01-26 18:10:00,
2013-01-26 13:12:00,15.8,2.0,30.16,West,270,6.5,8.3,54,0.00,,,0.00,WUHU21623XXSP,2013-01-26 18:12:00,
2013-01-26 13:14:00,15.6,1.8,30.16,West,270,8.1,8.3,54,0.00,,,0.00,WUHU21623XXSP,2013-01-26 18:14:00,
2013-01-26 13:16:00,15.6,1.8,30.16,WNW,292,7.8,8.3,54,0.00,,,0.00,WUHU21623XXSP,2013-01-26 18:16:00,
2013-01-26 13:18:00,15.4,2.0,30.16,West,270,3.1,8.3,55,0.00,,,0.00,WUHU21623XXSP,2013-01-26 18:18:00,
2013-01-26 13:20:00,15.6,1.8,30.16,WNW,292,7.4,8.1,54,0.00,,,0.00,WUHU21623XXSP,2013-01-26 18:20:00,
2013-01-26 13:22:00,15.6,2.2,30.16,West,270,7.8,8.1,55,0.00,,,0.00,WUHU21623XXSP,2013-01-26 18:22:00,
2013-01-26 13:24:00,15.4,2.0,30.16,NW,315,8.5,8.5,55,0.00,,,0.00,WUHU21623XXSP,2013-01-26 18:24:00,
2013-01-26 13:27:00,15.3,2.2,30.16,WNW,292,8.1,8.5,56,0.00,,,0.00,WUHU21623XXSP,2013-01-26 18:27:00,
2013-01-26 13:29:00,15.6,2.6,30.16,NW,315,11.9,11.9,56,0.00,,,0.00,WUHU21623XXSP,2013-01-26 18:29:00,
2013-01-26 13:31:00,15.6,3.0,30.16,NW,315,7.4,11.9,57,0.00,,,0.00,WUHU21623XXSP,2013-01-26 18:31:00,
2013-01-26 13:33:00,15.4,2.4,30.16,NNW,337,6.3,11.9,56,0.00,,,0.00,WUHU21623XXSP,2013-01-26 18:33:00,
2013-01-26 13:35:00,15.4,2.8,30.16,WSW,247,7.2,11.9,57,0.00,,,0.00,WUHU21623XXSP,2013-01-26 18:35:00,
2013-01-26 13:37:00,15.6,3.0,30.17,WNW,292,7.8,11.9,57,0.00,,,0.00,WUHU21623XXSP,2013-01-26 18:37:00,
2013-01-26 13:40:00,15.6,3.0,30.16,NW,315,7.2,7.8,57,0.00,,,0.00,WUHU21623XXSP,2013-01-26 18:40:00,
2013-01-26 13:42:00,15.4,2.4,30.17,WNW,292,9.4,9.4,56,0.00,,,0.00,WUHU21623XXSP,2013-01-26 18:42:00,
2013-01-26 13:44:00,15.4,2.8,30.17,West,270,5.4,9.4,57,0.00,,,0.00,WUHU21623XXSP,2013-01-26 18:44:00,
2013-01-26 13:46:00,15.6,3.3,30.17,WNW,292,7.4,9.4,58,0.00,,,0.00,WUHU21623XXSP,2013-01-26 18:46:00,
2013-01-26 13:48:00,15.4,2.8,30.17,West,270,7.2,9.4,57,0.00,,,0.00,WUHU21623XXSP,2013-01-26 18:48:00,
2013-01-26 13:50:00,15.4,3.2,30.17,WNW,292,5.4,9.4,58,0.00,,,0.00,WUHU21623XXSP,2013-01-26 18:50:00,
2013-01-26 13:52:00,15.6,3.3,30.17,West,270,6.7,7.4,58,0.00,,,0.00,WUHU21623XXSP,2013-01-26 18:52:00,
2013-01-26 13:54:00,15.6,3.3,30.17,NW,315,8.1,8.1,58,0.00,,,0.00,WUHU21623XXSP,2013-01-26 18:54:00,
2013-01-26 13:57:00,15.4,3.2,30.17,WNW,292,4.0,8.1,58,0.00,,,0.00,WUHU21623XXSP,2013-01-26 18:57:00,
2013-01-26 13:59:00,15.4,3.6,30.17,West,270,4.9,8.1,59,0.00,,,0.00,WUHU21623XXSP,2013-01-26 18:59:00,
2013-01-26 14:01:00,15.3,3.0,30.18,WNW,292,4.9,8.1,58,0.00,,,0.00,WUHU21623XXSP,2013-01-26 19:01:00,
2013-01-26 14:03:00,15.3,3.4,30.17,NW,315,2.5,8.1,59,0.00,,,0.00,WUHU21623XXSP,2013-01-26 19:03:00,
2013-01-26 14:05:00,15.4,3.6,30.18,WNW,292,6.0,6.0,59,0.00,,,0.00,WUHU21623XXSP,2013-01-26 19:05:00,
2013-01-26 14:07:00,15.3,3.4,30.17,West,270,8.1,8.1,59,0.00,,,0.00,WUHU21623XXSP,2013-01-26 19:07:00,
2013-01-26 14:09:00,15.1,3.6,30.17,WNW,292,7.2,8.1,60,0.00,,,0.00,WUHU21623XXSP,2013-01-26 19:09:00,
2013-01-26 14:12:00,15.1,4.0,30.18,WNW,292,4.3,8.1,61,0.00,,,0.00,WUHU21623XXSP,2013-01-26 19:12:00,
2013-01-26 14:14:00,15.1,4.3,30.18,NW,315,7.6,8.1,62,0.00,,,0.00,WUHU21623XXSP,2013-01-26 19:14:00,
2013-01-26 14:16:00,14.9,4.5,30.18,West,270,6.7,8.1,63,0.00,,,0.00,WUHU21623XXSP,2013-01-26 19:16:00,
2013-01-26 14:18:00,14.9,4.8,30.18,WNW,292,5.6,7.6,64,0.00,,,0.00,WUHU21623XXSP,2013-01-26 19:18:00,
2013-01-26 14:20:00,14.9,4.5,30.18,NW,315,6.0,7.6,63,0.00,,,0.00,WUHU21623XXSP,2013-01-26 19:20:00,
2013-01-26 14:22:00,14.7,4.3,30.18,West,270,6.5,7.6,63,0.00,,,0.00,WUHU21623XXSP,2013-01-26 19:22:00,
2013-01-26 14:24:00,14.9,4.5,30.18,WNW,292,4.3,6.7,63,0.00,,,0.00,WUHU21623XXSP,2013-01-26 19:24:00,
2013-01-26 14:26:00,14.9,4.5,30.18,West,270,3.4,6.5,63,0.00,,,0.00,WUHU21623XXSP,2013-01-26 19:26:00,
2013-01-26 14:29:00,14.9,4.5,30.18,WSW,247,7.6,7.6,63,0.00,,,0.00,WUHU21623XXSP,2013-01-26 19:29:00,
2013-01-26 14:31:00,15.1,4.7,30.18,WSW,247,5.4,7.6,63,0.00,,,0.00,WUHU21623XXSP,2013-01-26 19:31:00,
2013-01-26 14:33:00,15.1,5.0,30.18,WNW,292,6.9,7.6,64,0.00,,,0.00,WUHU21623XXSP,2013-01-26 19:33:00,
2013-01-26 14:35:00,15.4,5.3,30.18,WNW,292,4.3,7.6,64,0.00,,,0.00,WUHU21623XXSP,2013-01-26 19:35:00,
2013-01-26 14:37:00,15.4,5.0,30.19,WNW,292,6.7,7.6,63,0.00,,,0.00,WUHU21623XXSP,2013-01-26 19:37:00,
2013-01-26 14:39:00,15.4,5.0,30.19,NW,315,13.4,13.4,63,0.00,,,0.00,WUHU21623XXSP,2013-01-26 19:39:00,
2013-01-26 14:42:00,15.4,5.3,30.19,WNW,292,7.4,13.4,64,0.00,,,0.00,WUHU21623XXSP,2013-01-26 19:42:00,
2013-01-26 14:44:00,15.1,5.0,30.19,NW,315,9.2,13.4,64,0.00,,,0.00,WUHU21623XXSP,2013-01-26 19:44:00,
2013-01-26 14:46:00,15.1,5.0,30.19,WSW,247,6.7,13.4,64,0.00,,,0.00,WUHU21623XXSP,2013-01-26 19:46:00,
2013-01-26 14:48:00,14.9,4.8,30.19,WNW,292,11.0,13.4,64,0.00,,,0.00,WUHU21623XXSP,2013-01-26 19:48:00,
2013-01-26 14:50:00,14.7,5.0,30.19,WNW,292,4.3,11.0,65,0.00,,,0.00,WUHU21623XXSP,2013-01-26 19:50:00,
2013-01-26 14:52:00,14.7,5.4,30.19,NW,315,4.7,11.0,66,0.00,,,0.00,WUHU21623XXSP,2013-01-26 19:52:00,
2013-01-26 14:54:00,14.7,5.4,30.19,WNW,292,4.9,11.0,66,0.00,,,0.00,WUHU21623XXSP,2013-01-26 19:54:00,
2013-01-26 14:56:00,14.7,5.4,30.19,West,270,4.3,11.0,66,0.00,,,0.00,WUHU21623XXSP,2013-01-26 19:56:00,
2013-01-26 14:59:00,14.7,5.4,30.19,NW,315,8.5,8.5,66,0.00,,,0.00,WUHU21623XXSP,2013-01-26 19:59:00,
2013-01-26 15:01:00,14.7,5.4,30.19,West,270,3.6,8.5,66,0.00,,,0.00,WUHU21623XXSP,2013-01-26 20:01:00,
2013-01-26 15:03:00,14.7,5.7,30.20,West,270,5.1,8.5,67,0.00,,,0.00,WUHU21623XXSP,2013-01-26 20:03:00,
2013-01-26 15:05:00,14.9,6.2,30.20,WNW,292,6.5,8.5,68,0.00,,,0.00,WUHU21623XXSP,2013-01-26 20:05:00,
2013-01-26 15:07:00,15.1,6.4,30.20,WNW,292,4.9,8.5,68,0.00,,,0.00,WUHU21623XXSP,2013-01-26 20:07:00,
2013-01-26 15:09:00,15.3,6.5,30.20,WNW,292,3.6,6.5,68,0.00,,,0.00,WUHU21623XXSP,2013-01-26 20:09:00,
2013-01-26 15:11:00,15.1,6.4,30.20,WNW,292,7.2,7.2,68,0.00,,,0.00,WUHU21623XXSP,2013-01-26 20:11:00,
2013-01-26 15:14:00,14.9,6.2,30.20,West,270,4.3,7.2,68,0.00,,,0.00,WUHU21623XXSP,2013-01-26 20:14:00,
2013-01-26 15:16:00,14.9,6.2,30.20,WSW,247,4.0,7.2,68,0.00,,,0.00,WUHU21623XXSP,2013-01-26 20:16:00,
2013-01-26 15:18:00,14.9,6.5,30.20,WNW,292,7.2,7.2,69,0.00,,,0.00,WUHU21623XXSP,2013-01-26 20:18:00,
2013-01-26 15:20:00,14.9,6.9,30.20,WNW,292,2.9,7.2,70,0.00,,,0.00,WUHU21623XXSP,2013-01-26 20:20:00,
2013-01-26 15:22:00,14.9,6.5,30.20,West,270,2.2,7.2,69,0.00,,,0.00,WUHU21623XXSP,2013-01-26 20:22:00,
2013-01-26 15:24:00,14.9,6.5,30.20,SSW,202,2.2,7.2,69,0.00,,,0.00,WUHU21623XXSP,2013-01-26 20:24:00,
2013-01-26 15:26:00,14.7,6.7,30.20,NW,315,4.0,7.2,70,0.00,,,0.00,WUHU21623XXSP,2013-01-26 20:26:00,
2013-01-26 15:29:00,14.7,6.7,30.20,WNW,292,5.1,5.1,70,0.00,,,0.00,WUHU21623XXSP,2013-01-26 20:29:00,
2013-01-26 15:31:00,14.7,6.7,30.20,West,270,2.2,5.1,70,0.00,,,0.00,WUHU21623XXSP,2013-01-26 20:31:00,
2013-01-26 15:33:00,14.9,6.9,30.20,WSW,247,6.9,6.9,70,0.00,,,0.00,WUHU21623XXSP,2013-01-26 20:33:00,
2013-01-26 15:35:00,15.1,7.1,30.20,NNW,337,8.5,8.5,70,0.00,,,0.00,WUHU21623XXSP,2013-01-26 20:35:00,
2013-01-26 15:37:00,15.3,7.2,30.20,NW,315,4.0,8.5,70,0.00,,,0.00,WUHU21623XXSP,2013-01-26 20:37:00,
2013-01-26 15:39:00,15.4,7.4,30.20,West,270,4.5,8.5,70,0.00,,,0.00,WUHU21623XXSP,2013-01-26 20:39:00,
2013-01-26 15:41:00,15.6,7.2,30.20,WNW,292,6.5,8.5,69,0.00,,,0.00,WUHU21623XXSP,2013-01-26 20:41:00,
2013-01-26 15:44:00,15.6,7.2,30.20,NW,315,7.2,8.5,69,0.00,,,0.00,WUHU21623XXSP,2013-01-26 20:44:00,
2013-01-26 15:46:00,15.6,7.2,30.20,North,0,7.4,7.4,69,0.00,,,0.00,WUHU21623XXSP,2013-01-26 20:46:00,
2013-01-26 15:48:00,15.6,7.2,30.20,NW,315,4.3,7.4,69,0.00,,,0.00,WUHU21623XXSP,2013-01-26 20:48:00,
2013-01-26 15:50:00,15.6,6.9,30.20,West,270,2.0,7.4,68,0.00,,,0.00,WUHU21623XXSP,2013-01-26 20:50:00,
2013-01-26 15:52:00,15.6,6.5,30.21,WSW,247,4.9,7.4,67,0.00,,,0.00,WUHU21623XXSP,2013-01-26 20:52:00,
2013-01-26 15:54:00,15.6,6.5,30.20,WSW,247,2.0,7.4,67,0.00,,,0.00,WUHU21623XXSP,2013-01-26 20:54:00,
2013-01-26 15:56:00,15.8,6.7,30.20,WSW,247,3.4,4.9,67,0.00,,,0.00,WUHU21623XXSP,2013-01-26 20:56:00,
2013-01-26 15:58:00,15.6,6.5,30.20,WSW,247,5.4,5.4,67,0.00,,,0.00,WUHU21623XXSP,2013-01-26 20:58:00,
2013-01-26 16:01:00,15.6,6.5,30.20,WNW,292,4.9,5.4,67,0.00,,,0.00,WUHU21623XXSP,2013-01-26 21:01:00,
2013-01-26 16:03:00,15.6,6.5,30.20,West,270,3.1,5.4,67,0.00,,,0.00,WUHU21623XXSP,2013-01-26 21:03:00,
2013-01-26 16:05:00,15.8,6.7,30.21,NW,315,5.4,5.4,67,0.00,,,0.00,WUHU21623XXSP,2013-01-26 21:05:00,
2013-01-26 16:07:00,15.8,6.7,30.20,WNW,292,7.2,7.2,67,0.00,,,0.00,WUHU21623XXSP,2013-01-26 21:07:00,
2013-01-26 16:09:00,15.4,6.3,30.21,WNW,292,5.6,7.2,67,0.00,,,0.00,WUHU21623XXSP,2013-01-26 21:09:00,
2013-01-26 16:11:00,15.4,6.3,30.21,NW,315,2.9,7.2,67,0.00,,,0.00,WUHU21623XXSP,2013-01-26 21:11:00,
2013-01-26 16:13:00,15.3,6.2,30.21,WNW,292,2.7,7.2,67,0.00,,,0.00,WUHU21623XXSP,2013-01-26 21:13:00,
2013-01-26 16:16:00,15.3,6.2,30.21,WNW,292,2.5,7.2,67,0.00,,,0.00,WUHU21623XXSP,2013-01-26 21:16:00,
2013-01-26 16:18:00,15.1,6.0,30.21,WNW,292,2.0,5.6,67,0.00,,,0.00,WUHU21623XXSP,2013-01-26 21:18:00,
2013-01-26 16:20:00,14.9,5.5,30.21,West,270,2.5,2.9,66,0.00,,,0.00,WUHU21623XXSP,2013-01-26 21:20:00,
2013-01-26 16:22:00,14.9,5.5,30.21,WNW,292,3.6,3.6,66,0.00,,,0.00,WUHU21623XXSP,2013-01-26 21:22:00,
2013-01-26 16:24:00,14.4,5.4,30.20,WNW,292,4.7,4.7,67,0.00,,,0.00,WUHU21623XXSP,2013-01-26 21:24:00,
2013-01-26 16:26:00,14.2,5.2,30.21,WNW,292,4.3,4.7,67,0.00,,,0.00,WUHU21623XXSP,2013-01-26 21:26:00,
2013-01-26 16:28:00,14.2,5.2,30.21,West,270,1.1,4.7,67,0.00,,,0.00,WUHU21623XXSP,2013-01-26 21:28:00,
2013-01-26 16:31:00,13.8,5.2,30.21,WNW,292,4.7,4.7,68,0.00,,,0.00,WUHU21623XXSP,2013-01-26 21:31:00,
2013-01-26 16:33:00,13.8,5.2,30.21,West,270,0.0,4.7,68,0.00,,,0.00,WUHU21623XXSP,2013-01-26 21:33:00,
2013-01-26 16:35:00,13.6,5.0,30.21,West,270,2.0,4.7,68,0.00,,,0.00,WUHU21623XXSP,2013-01-26 21:35:00,
2013-01-26 16:37:00,13.6,5.0,30.21,WNW,292,0.0,4.7,68,0.00,,,0.00,WUHU21623XXSP,2013-01-26 21:37:00,
2013-01-26 16:39:00,13.6,5.0,30.21,West,270,0.9,4.7,68,0.00,,,0.00,WUHU21623XXSP,2013-01-26 21:39:00,
2013-01-26 16:41:00,13.3,4.7,30.21,West,270,3.8,3.8,68,0.00,,,0.00,WUHU21623XXSP,2013-01-26 21:41:00,
2013-01-26 16:43:00,13.3,4.7,30.21,West,270,1.6,3.8,68,0.00,,,0.00,WUHU21623XXSP,2013-01-26 21:43:00,
2013-01-26 16:46:00,13.3,4.7,30.21,West,270,3.4,3.8,68,0.00,,,0.00,WUHU21623XXSP,2013-01-26 21:46:00,
2013-01-26 16:48:00,13.3,4.7,30.21,West,270,0.4,3.8,68,0.00,,,0.00,WUHU21623XXSP,2013-01-26 21:48:00,
2013-01-26 16:50:00,13.1,4.5,30.21,West,270,1.1,3.8,68,0.00,,,0.00,WUHU21623XXSP,2013-01-26 21:50:00,
2013-01-26 16:52:00,13.1,4.5,30.22,West,270,0.0,3.4,68,0.00,,,0.00,WUHU21623XXSP,2013-01-26 21:52:00,
2013-01-26 16:54:00,12.7,4.1,30.21,West,270,0.0,3.4,68,0.00,,,0.00,WUHU21623XXSP,2013-01-26 21:54:00,
2013-01-26 16:56:00,12.6,4.0,30.22,West,270,0.0,1.1,68,0.00,,,0.00,WUHU21623XXSP,2013-01-26 21:56:00,
2013-01-26 16:58:00,12.4,3.8,30.22,West,270,0.0,1.1,68,0.00,,,0.00,WUHU21623XXSP,2013-01-26 21:58:00,
2013-01-26 17:01:00,12.0,3.4,30.22,West,270,0.0,0.0,68,0.00,,,0.00,WUHU21623XXSP,2013-01-26 22:01:00,
2013-01-26 17:03:00,12.0,3.8,30.22,WNW,292,0.0,0.0,69,0.00,,,0.00,WUHU21623XXSP,2013-01-26 22:03:00,
2013-01-26 17:05:00,11.8,3.6,30.21,West,270,0.0,0.0,69,0.00,,,0.00,WUHU21623XXSP,2013-01-26 22:05:00,
2013-01-26 17:07:00,11.5,2.9,30.22,WNW,292,0.0,0.0,68,0.00,,,0.00,WUHU21623XXSP,2013-01-26 22:07:00,
2013-01-26 17:09:00,11.5,2.9,30.22,WNW,292,0.0,0.0,68,0.00,,,0.00,WUHU21623XXSP,2013-01-26 22:09:00,
2013-01-26 17:11:00,11.5,2.9,30.22,WNW,292,0.0,0.0,68,0.00,,,0.00,WUHU21623XXSP,2013-01-26 22:11:00,
2013-01-26 17:13:00,11.1,2.5,30.22,West,270,0.0,0.0,68,0.00,,,0.00,WUHU21623XXSP,2013-01-26 22:13:00,
2013-01-26 17:16:00,11.1,2.9,30.23,WNW,292,0.0,0.0,69,0.00,,,0.00,WUHU21623XXSP,2013-01-26 22:16:00,
2013-01-26 17:18:00,10.9,2.4,30.23,WNW,292,0.0,0.0,68,0.00,,,0.00,WUHU21623XXSP,2013-01-26 22:18:00,
2013-01-26 17:20:00,10.8,2.2,30.23,West,270,0.0,0.0,68,0.00,,,0.00,WUHU21623XXSP,2013-01-26 22:20:00,
2013-01-26 17:22:00,10.2,1.7,30.23,West,270,0.0,0.0,68,0.00,,,0.00,WUHU21623XXSP,2013-01-26 22:22:00,
2013-01-26 17:24:00,10.0,1.5,30.23,West,270,0.0,0.0,68,0.00,,,0.00,WUHU21623XXSP,2013-01-26 22:24:00,
2013-01-26 17:26:00,9.7,1.2,30.23,West,270,0.0,0.0,68,0.00,,,0.00,WUHU21623XXSP,2013-01-26 22:26:00,
2013-01-26 17:28:00,9.3,0.8,30.23,West,270,0.0,0.0,68,0.00,,,0.00,WUHU21623XXSP,2013-01-26 22:28:00,
2013-01-26 17:30:00,9.1,1.0,30.23,West,270,0.0,0.0,69,0.00,,,0.00,WUHU21623XXSP,2013-01-26 22:30:00,
2013-01-26 17:33:00,8.8,0.7,30.23,West,270,0.0,0.0,69,0.00,,,0.00,WUHU21623XXSP,2013-01-26 22:33:00,
2013-01-26 17:35:00,8.6,0.9,30.23,West,270,0.0,0.0,70,0.00,,,0.00,WUHU21623XXSP,2013-01-26 22:35:00,
2013-01-26 17:37:00,8.4,0.7,30.23,West,270,0.0,0.0,70,0.00,,,0.00,WUHU21623XXSP,2013-01-26 22:37:00,
2013-01-26 17:39:00,8.4,0.7,30.23,West,270,0.0,0.0,70,0.00,,,0.00,WUHU21623XXSP,2013-01-26 22:39:00,
2013-01-26 17:41:00,8.2,0.5,30.23,West,270,0.0,0.0,70,0.00,,,0.00,WUHU21623XXSP,2013-01-26 22:41:00,
2013-01-26 17:43:00,7.9,0.1,30.23,West,270,0.0,0.0,70,0.00,,,0.00,WUHU21623XXSP,2013-01-26 22:43:00,
2013-01-26 17:45:00,7.7,0.0,30.23,West,270,0.0,0.0,70,0.00,,,0.00,WUHU21623XXSP,2013-01-26 22:45:00,
2013-01-26 17:48:00,7.5,-0.2,30.24,West,270,0.0,0.0,70,0.00,,,0.00,WUHU21623XXSP,2013-01-26 22:48:00,
2013-01-26 17:50:00,7.5,0.1,30.24,West,270,0.0,0.0,71,0.00,,,0.00,WUHU21623XXSP,2013-01-26 22:50:00,
2013-01-26 17:52:00,7.7,0.2,30.24,WNW,292,0.0,0.0,71,0.00,,,0.00,WUHU21623XXSP,2013-01-26 22:52:00,
2013-01-26 17:54:00,8.1,0.9,30.24,West,270,0.0,0.0,72,0.00,,,0.00,WUHU21623XXSP,2013-01-26 22:54:00,
2013-01-26 17:56:00,8.2,1.1,30.24,WNW,292,0.0,0.0,72,0.00,,,0.00,WUHU21623XXSP,2013-01-26 22:56:00,
2013-01-26 17:58:00,8.4,1.5,30.24,WNW,292,0.0,0.0,73,0.00,,,0.00,WUHU21623XXSP,2013-01-26 22:58:00,
2013-01-26 18:01:00,8.8,1.9,30.24,WNW,292,0.0,0.0,73,0.00,,,0.00,WUHU21623XXSP,2013-01-26 23:01:00,
2013-01-26 18:03:00,8.8,1.6,30.24,WNW,292,0.0,0.0,72,0.00,,,0.00,WUHU21623XXSP,2013-01-26 23:03:00,
2013-01-26 18:05:00,9.0,2.0,30.24,WNW,292,0.0,0.0,73,0.00,,,0.00,WUHU21623XXSP,2013-01-26 23:05:00,
2013-01-26 18:07:00,9.1,2.2,30.24,WNW,292,1.1,1.1,73,0.00,,,0.00,WUHU21623XXSP,2013-01-26 23:07:00,
2013-01-26 18:09:00,9.0,1.8,30.24,WNW,292,0.9,1.1,72,0.00,,,0.00,WUHU21623XXSP,2013-01-26 23:09:00,
2013-01-26 18:11:00,9.1,2.2,30.24,WNW,292,0.9,1.1,73,0.00,,,0.00,WUHU21623XXSP,2013-01-26 23:11:00,
2013-01-26 18:13:00,9.1,2.2,30.24,WNW,292,3.8,3.8,73,0.00,,,0.00,WUHU21623XXSP,2013-01-26 23:13:00,
2013-01-26 18:15:00,9.3,2.7,30.25,WNW,292,0.0,3.8,74,0.00,,,0.00,WUHU21623XXSP,2013-01-26 23:15:00,
2013-01-26 18:18:00,9.3,2.4,30.25,NW,315,5.8,5.8,73,0.00,,,0.00,WUHU21623XXSP,2013-01-26 23:18:00,
2013-01-26 18:20:00,9.3,2.4,30.24,NW,315,0.0,5.8,73,0.00,,,0.00,WUHU21623XXSP,2013-01-26 23:20:00,
2013-01-26 18:22:00,9.5,2.5,30.25,NW,315,0.0,5.8,73,0.00,,,0.00,WUHU21623XXSP,2013-01-26 23:22:00,
2013-01-26 18:24:00,9.3,2.4,30.25,WNW,292,0.0,5.8,73,0.00,,,0.00,WUHU21623XXSP,2013-01-26 23:24:00,
2013-01-26 18:26:00,9.1,2.2,30.25,WNW,292,0.0,5.8,73,0.00,,,0.00,WUHU21623XXSP,2013-01-26 23:26:00,
2013-01-26 18:28:00,9.1,2.2,30.25,WNW,292,0.0,0.0,73,0.00,,,0.00,WUHU21623XXSP,2013-01-26 23:28:00,
2013-01-26 18:31:00,9.1,2.5,30.25,NW,315,3.1,3.1,74,0.00,,,0.00,WUHU21623XXSP,2013-01-26 23:31:00,
2013-01-26 18:33:00,9.1,2.5,30.25,WNW,292,1.3,3.1,74,0.00,,,0.00,WUHU21623XXSP,2013-01-26 23:33:00,
2013-01-26 18:35:00,9.1,2.5,30.25,WNW,292,0.7,3.1,74,0.00,,,0.00,WUHU21623XXSP,2013-01-26 23:35:00,
2013-01-26 18:37:00,9.1,2.5,30.25,WNW,292,0.0,3.1,74,0.00,,,0.00,WUHU21623XXSP,2013-01-26 23:37:00,
2013-01-26 18:39:00,9.1,2.5,30.25,WNW,292,2.7,3.1,74,0.00,,,0.00,WUHU21623XXSP,2013-01-26 23:39:00,
2013-01-26 18:41:00,9.1,2.5,30.25,WNW,292,2.9,2.9,74,0.00,,,0.00,WUHU21623XXSP,2013-01-26 23:41:00,
2013-01-26 18:43:00,9.1,2.5,30.25,NW,315,4.3,4.3,74,0.00,,,0.00,WUHU21623XXSP,2013-01-26 23:43:00,
2013-01-26 18:45:00,9.0,2.3,30.25,NW,315,2.2,4.3,74,0.00,,,0.00,WUHU21623XXSP,2013-01-26 23:45:00,
2013-01-26 18:48:00,8.8,2.2,30.25,NW,315,0.0,4.3,74,0.00,,,0.00,WUHU21623XXSP,2013-01-26 23:48:00,
2013-01-26 18:50:00,8.8,2.2,30.25,NW,315,3.6,4.3,74,0.00,,,0.00,WUHU21623XXSP,2013-01-26 23:50:00,
2013-01-26 18:52:00,8.6,2.0,30.25,NW,315,0.0,4.3,74,0.00,,,0.00,WUHU21623XXSP,2013-01-26 23:52:00,
2013-01-26 18:54:00,8.4,1.8,30.25,NW,315,0.0,3.6,74,0.00,,,0.00,WUHU21623XXSP,2013-01-26 23:54:00,
2013-01-26 18:56:00,8.4,1.8,30.25,NW,315,0.0,3.6,74,0.00,,,0.00,WUHU21623XXSP,2013-01-26 23:56:00,
2013-01-26 18:58:00,8.1,1.5,30.25,NW,315,0.0,3.6,74,0.00,,,0.00,WUHU21623XXSP,2013-01-26 23:58:00,
2013-01-26 19:01:00,8.1,1.5,30.25,NW,315,0.0,0.0,74,0.00,,,0.00,WUHU21623XXSP,2013-01-27 00:01:00,
2013-01-26 19:02:00,7.9,1.3,30.26,NW,315,0.0,0.0,74,0.00,,,0.00,WUHU21623XXSP,2013-01-27 00:02:00,
2013-01-26 19:05:00,7.9,1.6,30.26,NW,315,0.0,0.0,75,0.00,,,0.00,WUHU21623XXSP,2013-01-27 00:05:00,
2013-01-26 19:07:00,7.7,1.4,30.26,WNW,292,0.0,0.0,75,0.00,,,0.00,WUHU21623XXSP,2013-01-27 00:07:00,
2013-01-26 19:09:00,7.9,1.9,30.26,NW,315,0.0,0.0,76,0.00,,,0.00,WUHU21623XXSP,2013-01-27 00:09:00,
2013-01-26 19:11:00,7.9,1.9,30.26,NW,315,0.0,0.0,76,0.00,,,0.00,WUHU21623XXSP,2013-01-27 00:11:00,
2013-01-26 19:13:00,7.7,1.7,30.26,NW,315,0.0,0.0,76,0.00,,,0.00,WUHU21623XXSP,2013-01-27 00:13:00,
2013-01-26 19:15:00,7.7,1.7,30.26,NW,315,0.0,0.0,76,0.00,,,0.00,WUHU21623XXSP,2013-01-27 00:15:00,
2013-01-26 19:18:00,7.5,1.5,30.26,NW,315,0.0,0.0,76,0.00,,,0.00,WUHU21623XXSP,2013-01-27 00:18:00,
2013-01-26 19:20:00,7.3,1.0,30.26,NW,315,0.0,0.0,75,0.00,,,0.00,WUHU21623XXSP,2013-01-27 00:20:00,
2013-01-26 19:22:00,7.0,0.7,30.26,NW,315,0.0,0.0,75,0.00,,,0.00,WUHU21623XXSP,2013-01-27 00:22:00,
2013-01-26 19:24:00,6.6,0.3,30.26,NW,315,0.0,0.0,75,0.00,,,0.00,WUHU21623XXSP,2013-01-27 00:24:00,
2013-01-26 19:26:00,6.6,0.3,30.26,NW,315,0.0,0.0,75,0.00,,,0.00,WUHU21623XXSP,2013-01-27 00:26:00,
2013-01-26 19:28:00,6.4,0.1,30.26,NW,315,0.0,0.0,75,0.00,,,0.00,WUHU21623XXSP,2013-01-27 00:28:00,
2013-01-26 19:30:00,6.1,-0.2,30.26,NW,315,0.0,0.0,75,0.00,,,0.00,WUHU21623XXSP,2013-01-27 00:30:00,
2013-01-26 19:33:00,6.1,-0.2,30.26,NW,315,0.0,0.0,75,0.00,,,0.00,WUHU21623XXSP,2013-01-27 00:33:00,
2013-01-26 19:35:00,5.9,-0.4,30.26,NW,315,0.0,0.0,75,0.00,,,0.00,WUHU21623XXSP,2013-01-27 00:35:00,
2013-01-26 19:37:00,5.7,-0.6,30.26,NW,315,0.0,0.0,75,0.00,,,0.00,WUHU21623XXSP,2013-01-27 00:37:00,
2013-01-26 19:39:00,5.5,-0.8,30.26,NW,315,0.0,0.0,75,0.00,,,0.00,WUHU21623XXSP,2013-01-27 00:39:00,
2013-01-26 19:41:00,5.4,-0.9,30.26,NW,315,0.0,0.0,75,0.00,,,0.00,WUHU21623XXSP,2013-01-27 00:41:00,
2013-01-26 19:43:00,5.2,-1.1,30.26,NW,315,0.0,0.0,75,0.00,,,0.00,WUHU21623XXSP,2013-01-27 00:43:00,
2013-01-26 19:45:00,4.8,-1.5,30.26,NW,315,0.0,0.0,75,0.00,,,0.00,WUHU21623XXSP,2013-01-27 00:45:00,
2013-01-26 19:47:00,4.8,-1.5,30.26,NW,315,0.0,0.0,75,0.00,,,0.00,WUHU21623XXSP,2013-01-27 00:47:00,
2013-01-26 19:50:00,4.6,-1.6,30.26,NW,315,0.0,0.0,75,0.00,,,0.00,WUHU21623XXSP,2013-01-27 00:50:00,
2013-01-26 19:52:00,4.6,-1.6,30.26,NW,315,0.0,0.0,75,0.00,,,0.00,WUHU21623XXSP,2013-01-27 00:52:00,
2013-01-26 19:54:00,4.6,-1.6,30.26,NW,315,0.0,0.0,75,0.00,,,0.00,WUHU21623XXSP,2013-01-27 00:54:00,
2013-01-26 19:56:00,4.6,-1.4,30.26,NW,315,0.0,0.0,76,0.00,,,0.00,WUHU21623XXSP,2013-01-27 00:56:00,
2013-01-26 19:58:00,4.6,-1.6,30.26,NW,315,0.0,0.0,75,0.00,,,0.00,WUHU21623XXSP,2013-01-27 00:58:00,
2013-01-26 20:00:00,4.6,-1.4,30.26,NW,315,0.0,0.0,76,0.00,,,0.00,WUHU21623XXSP,2013-01-27 01:00:00,
2013-01-26 20:02:00,4.8,-1.2,30.26,NW,315,0.0,0.0,76,0.00,,,0.00,WUHU21623XXSP,2013-01-27 01:02:00,
2013-01-26 20:05:00,4.8,-1.2,30.26,WNW,292,0.0,0.0,76,0.00,,,0.00,WUHU21623XXSP,2013-01-27 01:05:00,
2013-01-26 20:07:00,4.8,-1.2,30.26,WNW,292,0.0,0.0,76,0.00,,,0.00,WUHU21623XXSP,2013-01-27 01:07:00,
2013-01-26 20:09:00,5.0,-0.7,30.26,WNW,292,0.0,0.0,77,0.00,,,0.00,WUHU21623XXSP,2013-01-27 01:09:00,
2013-01-26 20:11:00,5.0,-1.0,30.26,WNW,292,0.0,0.0,76,0.00,,,0.00,WUHU21623XXSP,2013-01-27 01:11:00,
2013-01-26 20:13:00,5.2,-0.5,30.26,WNW,292,0.0,0.0,77,0.00,,,0.00,WUHU21623XXSP,2013-01-27 01:13:00,
2013-01-26 20:15:00,5.5,0.1,30.26,WNW,292,0.0,0.0,78,0.00,,,0.00,WUHU21623XXSP,2013-01-27 01:15:00,
2013-01-26 20:17:00,6.1,0.6,30.26,WNW,292,0.0,0.0,78,0.00,,,0.00,WUHU21623XXSP,2013-01-27 01:17:00,
2013-01-26 20:20:00,6.6,1.5,30.26,West,270,0.0,0.0,79,0.00,,,0.00,WUHU21623XXSP,2013-01-27 01:20:00,
2013-01-26 20:22:00,7.2,2.3,30.26,West,270,0.0,0.0,80,0.00,,,0.00,WUHU21623XXSP,2013-01-27 01:22:00,
2013-01-26 20:24:00,7.5,2.4,30.26,West,270,0.0,0.0,79,0.00,,,0.00,WUHU21623XXSP,2013-01-27 01:24:00,
2013-01-26 20:26:00,7.7,2.6,30.26,West,270,0.0,0.0,79,0.00,,,0.00,WUHU21623XXSP,2013-01-27 01:26:00,
2013-01-26 20:28:00,8.1,2.9,30.26,West,270,2.2,2.2,79,0.00,,,0.00,WUHU21623XXSP,2013-01-27 01:28:00,
2013-01-26 20:30:00,8.2,3.1,30.26,West,270,0.0,2.2,79,0.00,,,0.00,WUHU21623XXSP,2013-01-27 01:30:00,
2013-01-26 20:32:00,8.4,3.3,30.26,West,270,2.2,2.2,79,0.00,,,0.00,WUHU21623XXSP,2013-01-27 01:32:00,
2013-01-26 20:35:00,8.4,3.3,30.26,West,270,0.0,2.2,79,0.00,,,0.00,WUHU21623XXSP,2013-01-27 01:35:00,
2013-01-26 20:37:00,8.6,3.5,30.26,West,270,0.0,2.2,79,0.00,,,0.00,WUHU21623XXSP,2013-01-27 01:37:00,
2013-01-26 20:39:00,8.8,3.6,30.26,West,270,0.0,2.2,79,0.00,,,0.00,WUHU21623XXSP,2013-01-27 01:39:00,
2013-01-26 20:41:00,9.0,3.8,30.26,West,270,0.0,2.2,79,0.00,,,0.00,WUHU21623XXSP,2013-01-27 01:41:00,
2013-01-26 20:43:00,9.1,3.9,30.27,West,270,3.8,3.8,79,0.00,,,0.00,WUHU21623XXSP,2013-01-27 01:43:00,
2013-01-26 20:45:00,9.1,3.9,30.27,WNW,292,1.8,3.8,79,0.00,,,0.00,WUHU21623XXSP,2013-01-27 01:45:00,
2013-01-26 20:47:00,9.3,4.1,30.27,WNW,292,1.1,3.8,79,0.00,,,0.00,WUHU21623XXSP,2013-01-27 01:47:00,
2013-01-26 20:50:00,9.5,4.3,30.27,West,270,0.0,3.8,79,0.00,,,0.00,WUHU21623XXSP,2013-01-27 01:50:00,
2013-01-26 20:52:00,9.5,4.0,30.27,WNW,292,0.0,3.8,78,0.00,,,0.00,WUHU21623XXSP,2013-01-27 01:52:00,
2013-01-26 20:54:00,9.3,3.8,30.27,WNW,292,0.0,1.8,78,0.00,,,0.00,WUHU21623XXSP,2013-01-27 01:54:00,
2013-01-26 20:56:00,9.3,3.8,30.27,WNW,292,0.0,1.1,78,0.00,,,0.00,WUHU21623XXSP,2013-01-27 01:56:00,
2013-01-26 20:58:00,9.3,3.8,30.27,WNW,292,0.0,0.0,78,0.00,,,0.00,WUHU21623XXSP,2013-01-27 01:58:00,
2013-01-26 21:00:00,9.3,3.8,30.27,WNW,292,0.0,0.0,78,0.00,,,0.00,WUHU21623XXSP,2013-01-27 02:00:00,
2013-01-26 21:02:00,9.3,3.8,30.27,WNW,292,0.0,0.0,78,0.00,,,0.00,WUHU21623XXSP,2013-01-27 02:02:00,
2013-01-26 21:05:00,9.1,3.6,30.27,WNW,292,0.0,0.0,78,0.00,,,0.00,WUHU21623XXSP,2013-01-27 02:05:00,
2013-01-26 21:07:00,9.1,3.6,30.27,WNW,292,0.0,0.0,78,0.00,,,0.00,WUHU21623XXSP,2013-01-27 02:07:00,
2013-01-26 21:09:00,9.0,3.2,30.27,WNW,292,0.0,0.0,77,0.00,,,0.00,WUHU21623XXSP,2013-01-27 02:09:00,
2013-01-26 21:11:00,8.8,3.0,30.27,WNW,292,0.0,0.0,77,0.00,,,0.00,WUHU21623XXSP,2013-01-27 02:11:00,
2013-01-26 21:13:00,8.4,3.0,30.27,WNW,292,0.0,0.0,78,0.00,,,0.00,WUHU21623XXSP,2013-01-27 02:13:00,
2013-01-26 21:15:00,8.2,2.8,30.27,WNW,292,0.0,0.0,78,0.00,,,0.00,WUHU21623XXSP,2013-01-27 02:15:00,
2013-01-26 21:17:00,8.1,2.3,30.27,WNW,292,0.0,0.0,77,0.00,,,0.00,WUHU21623XXSP,2013-01-27 02:17:00,
2013-01-26 21:20:00,7.9,2.4,30.27,West,270,0.0,0.0,78,0.00,,,0.00,WUHU21623XXSP,2013-01-27 02:20:00,
2013-01-26 21:22:00,7.5,2.1,30.27,WNW,292,0.7,0.7,78,0.00,,,0.00,WUHU21623XXSP,2013-01-27 02:22:00,
2013-01-26 21:24:00,7.5,2.1,30.27,WNW,292,0.0,0.7,78,0.00,,,0.00,WUHU21623XXSP,2013-01-27 02:24:00,
2013-01-26 21:26:00,7.5,2.1,30.27,WNW,292,0.0,0.7,78,0.00,,,0.00,WUHU21623XXSP,2013-01-27 02:26:00,
2013-01-26 21:28:00,7.5,2.1,30.27,WNW,292,0.0,0.7,78,0.00,,,0.00,WUHU21623XXSP,2013-01-27 02:28:00,
2013-01-26 21:30:00,7.3,2.2,30.27,WNW,292,0.0,0.7,79,0.00,,,0.00,WUHU21623XXSP,2013-01-27 02:30:00,
2013-01-26 21:32:00,7.2,2.0,30.27,West,270,0.0,0.0,79,0.00,,,0.00,WUHU21623XXSP,2013-01-27 02:32:00,
2013-01-26 21:34:00,7.0,1.8,30.27,WNW,292,1.3,1.3,79,0.00,,,0.00,WUHU21623XXSP,2013-01-27 02:34:00,
2013-01-26 21:37:00,7.2,2.0,30.27,WNW,292,3.4,3.4,79,0.00,,,0.00,WUHU21623XXSP,2013-01-27 02:37:00,
2013-01-26 21:39:00,7.2,2.3,30.27,WNW,292,0.0,3.4,80,0.00,,,0.00,WUHU21623XXSP,2013-01-27 02:39:00,
2013-01-26 21:41:00,7.0,2.1,30.27,WNW,292,0.0,3.4,80,0.00,,,0.00,WUHU21623XXSP,2013-01-27 02:41:00,
2013-01-26 21:43:00,7.0,2.1,30.28,WNW,292,0.0,3.4,80,0.00,,,0.00,WUHU21623XXSP,2013-01-27 02:43:00,
2013-01-26 21:45:00,7.0,2.1,30.28,WNW,292,0.0,3.4,80,0.00,,,0.00,WUHU21623XXSP,2013-01-27 02:45:00,
2013-01-26 21:47:00,6.6,1.8,30.28,WNW,292,0.0,0.0,80,0.00,,,0.00,WUHU21623XXSP,2013-01-27 02:47:00,
2013-01-26 21:50:00,6.6,1.8,30.28,WNW,292,0.0,0.0,80,0.00,,,0.00,WUHU21623XXSP,2013-01-27 02:50:00,
2013-01-26 21:52:00,6.6,1.8,30.28,WNW,292,0.0,0.0,80,0.00,,,0.00,WUHU21623XXSP,2013-01-27 02:52:00,
2013-01-26 21:54:00,6.4,1.6,30.28,WNW,292,0.0,0.0,80,0.00,,,0.00,WUHU21623XXSP,2013-01-27 02:54:00,
2013-01-26 21:56:00,6.4,1.6,30.27,WNW,292,0.0,0.0,80,0.00,,,0.00,WUHU21623XXSP,2013-01-27 02:56:00,
2013-01-26 21:58:00,6.4,1.6,30.27,WNW,292,0.0,0.0,80,0.00,,,0.00,WUHU21623XXSP,2013-01-27 02:58:00,
2013-01-26 22:00:00,6.4,1.6,30.27,WNW,292,0.0,0.0,80,0.00,,,0.00,WUHU21623XXSP,2013-01-27 03:00:00,
2013-01-26 22:02:00,6.4,1.6,30.27,WNW,292,0.0,0.0,80,0.00,,,0.00,WUHU21623XXSP,2013-01-27 03:02:00,
2013-01-26 22:05:00,6.4,1.6,30.27,WNW,292,0.0,0.0,80,0.00,,,0.00,WUHU21623XXSP,2013-01-27 03:05:00,
2013-01-26 22:07:00,6.1,1.2,30.27,WNW,292,0.0,0.0,80,0.00,,,0.00,WUHU21623XXSP,2013-01-27 03:07:00,
2013-01-26 22:09:00,6.1,1.2,30.27,WNW,292,0.0,0.0,80,0.00,,,0.00,WUHU21623XXSP,2013-01-27 03:09:00,
2013-01-26 22:11:00,6.1,1.2,30.27,WNW,292,0.0,0.0,80,0.00,,,0.00,WUHU21623XXSP,2013-01-27 03:11:00,
2013-01-26 22:13:00,6.1,1.2,30.27,WNW,292,0.0,0.0,80,0.00,,,0.00,WUHU21623XXSP,2013-01-27 03:13:00,
2013-01-26 22:15:00,5.9,1.0,30.28,WNW,292,0.0,0.0,80,0.00,,,0.00,WUHU21623XXSP,2013-01-27 03:15:00,
2013-01-26 22:17:00,6.1,1.2,30.28,WNW,292,0.0,0.0,80,0.00,,,0.00,WUHU21623XXSP,2013-01-27 03:17:00,
2013-01-26 22:19:00,6.1,1.5,30.28,WNW,292,0.0,0.0,81,0.00,,,0.00,WUHU21623XXSP,2013-01-27 03:19:00,
2013-01-26 22:22:00,5.9,1.0,30.28,WNW,292,1.3,1.3,80,0.00,,,0.00,WUHU21623XXSP,2013-01-27 03:22:00,
2013-01-26 22:24:00,6.1,1.5,30.28,WNW,292,0.0,1.3,81,0.00,,,0.00,WUHU21623XXSP,2013-01-27 03:24:00,
2013-01-26 22:26:00,5.9,1.3,30.28,WNW,292,0.0,1.3,81,0.00,,,0.00,WUHU21623XXSP,2013-01-27 03:26:00,
2013-01-26 22:28:00,5.9,1.3,30.28,WNW,292,0.0,1.3,81,0.00,,,0.00,WUHU21623XXSP,2013-01-27 03:28:00,
2013-01-26 22:30:00,5.7,1.1,30.29,WNW,292,0.0,1.3,81,0.00,,,0.00,WUHU21623XXSP,2013-01-27 03:30:00,
2013-01-26 22:32:00,5.5,0.7,30.29,WNW,292,0.0,0.0,80,0.00,,,0.00,WUHU21623XXSP,2013-01-27 03:32:00,
2013-01-26 22:34:00,5.5,0.7,30.29,WNW,292,0.0,0.0,80,0.00,,,0.00,WUHU21623XXSP,2013-01-27 03:34:00,
2013-01-26 22:37:00,5.4,0.5,30.29,WNW,292,0.0,0.0,80,0.00,,,0.00,WUHU21623XXSP,2013-01-27 03:37:00,
2013-01-26 22:39:00,5.2,0.3,30.29,WNW,292,0.0,0.0,80,0.00,,,0.00,WUHU21623XXSP,2013-01-27 03:39:00,
2013-01-26 22:41:00,5.2,0.6,30.29,WNW,292,0.0,0.0,81,0.00,,,0.00,WUHU21623XXSP,2013-01-27 03:41:00,
2013-01-26 22:43:00,5.2,0.3,30.29,WNW,292,0.0,0.0,80,0.00,,,0.00,WUHU21623XXSP,2013-01-27 03:43:00,
2013-01-26 22:45:00,5.0,0.1,30.29,WNW,292,0.0,0.0,80,0.00,,,0.00,WUHU21623XXSP,2013-01-27 03:45:00,
2013-01-26 22:47:00,5.0,0.1,30.29,WNW,292,0.0,0.0,80,0.00,,,0.00,WUHU21623XXSP,2013-01-27 03:47:00,
2013-01-26 22:49:00,4.8,0.0,30.29,WNW,292,0.0,0.0,80,0.00,,,0.00,WUHU21623XXSP,2013-01-27 03:49:00,
2013-01-26 22:52:00,4.5,-0.4,30.29,WNW,292,0.0,0.0,80,0.00,,,0.00,WUHU21623XXSP,2013-01-27 03:52:00,
2013-01-26 22:54:00,4.1,-0.8,30.29,WNW,292,0.0,0.0,80,0.00,,,0.00,WUHU21623XXSP,2013-01-27 03:54:00,
2013-01-26 22:56:00,3.7,-1.1,30.29,WNW,292,0.0,0.0,80,0.00,,,0.00,WUHU21623XXSP,2013-01-27 03:56:00,
2013-01-26 22:58:00,3.7,-1.1,30.29,WNW,292,0.0,0.0,80,0.00,,,0.00,WUHU21623XXSP,2013-01-27 03:58:00,
2013-01-26 23:00:00,3.7,-1.1,30.29,WNW,292,0.0,0.0,80,0.00,,,0.00,WUHU21623XXSP,2013-01-27 04:00:00,
2013-01-26 23:02:00,3.9,-0.9,30.29,WNW,292,0.0,0.0,80,0.00,,,0.00,WUHU21623XXSP,2013-01-27 04:02:00,
2013-01-26 23:04:00,3.9,-0.9,30.29,WNW,292,0.0,0.0,80,0.00,,,0.00,WUHU21623XXSP,2013-01-27 04:04:00,
2013-01-26 23:07:00,4.3,-0.6,30.29,WNW,292,0.0,0.0,80,0.00,,,0.00,WUHU21623XXSP,2013-01-27 04:07:00,
2013-01-26 23:09:00,4.3,-0.6,30.30,WNW,292,0.0,0.0,80,0.00,,,0.00,WUHU21623XXSP,2013-01-27 04:09:00,
2013-01-26 23:11:00,4.1,-0.8,30.29,WNW,292,0.0,0.0,80,0.00,,,0.00,WUHU21623XXSP,2013-01-27 04:11:00,
2013-01-26 23:13:00,3.9,-0.9,30.29,WNW,292,0.0,0.0,80,0.00,,,0.00,WUHU21623XXSP,2013-01-27 04:13:00,
2013-01-26 23:15:00,3.7,-1.1,30.29,WNW,292,0.0,0.0,80,0.00,,,0.00,WUHU21623XXSP,2013-01-27 04:15:00,
2013-01-26 23:17:00,3.6,-1.3,30.29,WNW,292,0.0,0.0,80,0.00,,,0.00,WUHU21623XXSP,2013-01-27 04:17:00,
2013-01-26 23:19:00,3.4,-1.8,30.29,WNW,292,0.0,0.0,79,0.00,,,0.00,WUHU21623XXSP,2013-01-27 04:19:00,
2013-01-26 23:22:00,3.6,-1.3,30.29,WNW,292,0.0,0.0,80,0.00,,,0.00,WUHU21623XXSP,2013-01-27 04:22:00,
2013-01-26 23:24:00,3.7,-1.1,30.29,WNW,292,0.0,0.0,80,0.00,,,0.00,WUHU21623XXSP,2013-01-27 04:24:00,
2013-01-26 23:26:00,3.6,-1.6,30.29,WNW,292,0.0,0.0,79,0.00,,,0.00,WUHU21623XXSP,2013-01-27 04:26:00,
2013-01-26 23:28:00,3.4,-1.8,30.29,WNW,292,0.0,0.0,79,0.00,,,0.00,WUHU21623XXSP,2013-01-27 04:28:00,
2013-01-26 23:30:00,3.4,-1.8,30.30,WNW,292,0.0,0.0,79,0.00,,,0.00,WUHU21623XXSP,2013-01-27 04:30:00,
2013-01-26 23:32:00,3.4,-1.8,30.30,WNW,292,0.0,0.0,79,0.00,,,0.00,WUHU21623XXSP,2013-01-27 04:32:00,
2013-01-26 23:34:00,3.7,-1.1,30.30,WNW,292,0.0,0.0,80,0.00,,,0.00,WUHU21623XXSP,2013-01-27 04:34:00,
2013-01-26 23:36:00,3.7,-1.4,30.30,WNW,292,0.0,0.0,79,0.00,,,0.00,WUHU21623XXSP,2013-01-27 04:36:00,
2013-01-26 23:39:00,3.7,-1.1,30.30,WNW,292,0.0,0.0,80,0.00,,,0.00,WUHU21623XXSP,2013-01-27 04:39:00,
2013-01-26 23:41:00,3.6,-1.6,30.30,WNW,292,0.0,0.0,79,0.00,,,0.00,WUHU21623XXSP,2013-01-27 04:41:00,
2013-01-26 23:43:00,3.4,-1.8,30.30,WNW,292,0.0,0.0,79,0.00,,,0.00,WUHU21623XXSP,2013-01-27 04:43:00,
2013-01-26 23:45:00,3.6,-1.3,30.30,WNW,292,0.0,0.0,80,0.00,,,0.00,WUHU21623XXSP,2013-01-27 04:45:00,
2013-01-26 23:47:00,3.6,-1.6,30.30,WNW,292,0.0,0.0,79,0.00,,,0.00,WUHU21623XXSP,2013-01-27 04:47:00,
2013-01-26 23:49:00,3.6,-1.3,30.30,WNW,292,0.0,0.0,80,0.00,,,0.00,WUHU21623XXSP,2013-01-27 04:49:00,
2013-01-26 23:51:00,3.6,-1.6,30.30,WNW,292,0.0,0.0,79,0.00,,,0.00,WUHU21623XXSP,2013-01-27 04:51:00,
2013-01-26 23:54:00,3.7,-1.1,30.30,WNW,292,1.8,1.8,80,0.00,,,0.00,WUHU21623XXSP,2013-01-27 04:54:00,
2013-01-26 23:56:00,4.1,-0.8,30.30,WNW,292,0.0,1.8,80,0.00,,,0.00,WUHU21623XXSP,2013-01-27 04:56:00,
2013-01-26 23:58:00,4.8,0.2,30.30,WNW,292,0.0,1.8,81,0.00,,,0.00,WUHU21623XXSP,2013-01-27 04:58:00,